<?xml version="1.0" encoding="UTF-8" standalone="no" ?>
<gpx xmlns="http://www.topografix.com/GPX/1/1" xmlns:xsi="http://www.w3.org/2001/XMLSchema-instance" xsi:schemaLocation="http://www.topografix.com/GPX/1/1 http://www.topografix.com/GPX/1/1/gpx.xsd" version="1.1" creator="VisuGPX - https://www.visugpx.com">
  <metadata>
    <name>64 - VTT - le classique</name>
    <desc><![CDATA[Base pour entrainement]]></desc>
  </metadata>
  <trk>
    <name><![CDATA[ACTIVE LOG 007]]></name>
    <trkseg>
      <trkpt lat="43.31575" lon="-0.58649">
        <ele>198.168945</ele>
        <time>2014-05-08T14:11:50Z</time>
      </trkpt>
      <trkpt lat="43.31574" lon="-0.58649">
        <ele>200.091675</ele>
        <time>2014-05-08T14:11:51Z</time>
      </trkpt>
      <trkpt lat="43.31574" lon="-0.58648">
        <ele>200.572266</ele>
        <time>2014-05-08T14:12:16Z</time>
      </trkpt>
      <trkpt lat="43.31572" lon="-0.58649">
        <ele>201.533569</ele>
        <time>2014-05-08T14:12:49Z</time>
      </trkpt>
      <trkpt lat="43.31571" lon="-0.58649">
        <ele>200.091675</ele>
        <time>2014-05-08T14:13:03Z</time>
      </trkpt>
      <trkpt lat="43.31574" lon="-0.58648">
        <ele>200.572266</ele>
        <time>2014-05-08T14:13:09Z</time>
      </trkpt>
      <trkpt lat="43.31578" lon="-0.58644">
        <ele>200.572266</ele>
        <time>2014-05-08T14:13:13Z</time>
      </trkpt>
      <trkpt lat="43.31584" lon="-0.58634">
        <ele>199.61084</ele>
        <time>2014-05-08T14:13:17Z</time>
      </trkpt>
      <trkpt lat="43.31589" lon="-0.58604">
        <ele>198.649536</ele>
        <time>2014-05-08T14:13:21Z</time>
      </trkpt>
      <trkpt lat="43.31583" lon="-0.58542">
        <ele>194.804321</ele>
        <time>2014-05-08T14:13:30Z</time>
      </trkpt>
      <trkpt lat="43.31598" lon="-0.5853">
        <ele>192.881714</ele>
        <time>2014-05-08T14:13:34Z</time>
      </trkpt>
      <trkpt lat="43.31631" lon="-0.58522">
        <ele>188.075073</ele>
        <time>2014-05-08T14:13:38Z</time>
      </trkpt>
      <trkpt lat="43.31667" lon="-0.58517">
        <ele>184.229858</ele>
        <time>2014-05-08T14:13:41Z</time>
      </trkpt>
      <trkpt lat="43.31688" lon="-0.58515">
        <ele>178.942627</ele>
        <time>2014-05-08T14:13:43Z</time>
      </trkpt>
      <trkpt lat="43.31698" lon="-0.58513">
        <ele>177.50061</ele>
        <time>2014-05-08T14:13:44Z</time>
      </trkpt>
      <trkpt lat="43.31732" lon="-0.58489">
        <ele>171.732666</ele>
        <time>2014-05-08T14:13:48Z</time>
      </trkpt>
      <trkpt lat="43.31766" lon="-0.58453">
        <ele>169.329468</ele>
        <time>2014-05-08T14:13:52Z</time>
      </trkpt>
      <trkpt lat="43.31788" lon="-0.58424">
        <ele>166.445313</ele>
        <time>2014-05-08T14:13:55Z</time>
      </trkpt>
      <trkpt lat="43.31815" lon="-0.58376">
        <ele>168.848755</ele>
        <time>2014-05-08T14:14:01Z</time>
      </trkpt>
      <trkpt lat="43.3184" lon="-0.58331">
        <ele>172.213257</ele>
        <time>2014-05-08T14:14:12Z</time>
      </trkpt>
      <trkpt lat="43.31842" lon="-0.58327">
        <ele>172.69397</ele>
        <time>2014-05-08T14:14:13Z</time>
      </trkpt>
      <trkpt lat="43.31871" lon="-0.58255">
        <ele>175.577881</ele>
        <time>2014-05-08T14:14:29Z</time>
      </trkpt>
      <trkpt lat="43.31893" lon="-0.58207">
        <ele>175.09729</ele>
        <time>2014-05-08T14:14:42Z</time>
      </trkpt>
      <trkpt lat="43.31909" lon="-0.58163">
        <ele>172.69397</ele>
        <time>2014-05-08T14:14:49Z</time>
      </trkpt>
      <trkpt lat="43.31915" lon="-0.58157">
        <ele>171.732666</ele>
        <time>2014-05-08T14:14:50Z</time>
      </trkpt>
      <trkpt lat="43.31928" lon="-0.58143">
        <ele>169.810059</ele>
        <time>2014-05-08T14:14:52Z</time>
      </trkpt>
      <trkpt lat="43.31956" lon="-0.58114">
        <ele>166.926025</ele>
        <time>2014-05-08T14:14:57Z</time>
      </trkpt>
      <trkpt lat="43.31959" lon="-0.5811">
        <ele>165.964722</ele>
        <time>2014-05-08T14:14:58Z</time>
      </trkpt>
      <trkpt lat="43.31975" lon="-0.58116">
        <ele>164.042114</ele>
        <time>2014-05-08T14:15:02Z</time>
      </trkpt>
      <trkpt lat="43.31978" lon="-0.58121">
        <ele>164.042114</ele>
        <time>2014-05-08T14:15:03Z</time>
      </trkpt>
      <trkpt lat="43.32004" lon="-0.58157">
        <ele>165.003418</ele>
        <time>2014-05-08T14:15:11Z</time>
      </trkpt>
      <trkpt lat="43.32022" lon="-0.58172">
        <ele>164.522705</ele>
        <time>2014-05-08T14:15:15Z</time>
      </trkpt>
      <trkpt lat="43.32096" lon="-0.58199">
        <ele>165.484131</ele>
        <time>2014-05-08T14:15:30Z</time>
      </trkpt>
      <trkpt lat="43.32142" lon="-0.58218">
        <ele>165.484131</ele>
        <time>2014-05-08T14:15:44Z</time>
      </trkpt>
      <trkpt lat="43.32157" lon="-0.58197">
        <ele>164.522705</ele>
        <time>2014-05-08T14:15:48Z</time>
      </trkpt>
      <trkpt lat="43.32194" lon="-0.5816">
        <ele>161.158203</ele>
        <time>2014-05-08T14:15:54Z</time>
      </trkpt>
      <trkpt lat="43.32221" lon="-0.58102">
        <ele>158.754761</ele>
        <time>2014-05-08T14:16:00Z</time>
      </trkpt>
      <trkpt lat="43.32231" lon="-0.5806">
        <ele>156.351563</ele>
        <time>2014-05-08T14:16:04Z</time>
      </trkpt>
      <trkpt lat="43.32228" lon="-0.58016">
        <ele>154.909546</ele>
        <time>2014-05-08T14:16:08Z</time>
      </trkpt>
      <trkpt lat="43.32228" lon="-0.57985">
        <ele>153.467651</ele>
        <time>2014-05-08T14:16:13Z</time>
      </trkpt>
      <trkpt lat="43.32226" lon="-0.57976">
        <ele>152.986938</ele>
        <time>2014-05-08T14:16:15Z</time>
      </trkpt>
      <trkpt lat="43.32226" lon="-0.57927">
        <ele>152.025757</ele>
        <time>2014-05-08T14:16:23Z</time>
      </trkpt>
      <trkpt lat="43.32229" lon="-0.57903">
        <ele>150.103027</ele>
        <time>2014-05-08T14:16:26Z</time>
      </trkpt>
      <trkpt lat="43.32255" lon="-0.57896">
        <ele>149.141602</ele>
        <time>2014-05-08T14:16:31Z</time>
      </trkpt>
      <trkpt lat="43.32264" lon="-0.5789">
        <ele>147.699707</ele>
        <time>2014-05-08T14:16:33Z</time>
      </trkpt>
      <trkpt lat="43.32266" lon="-0.57885">
        <ele>147.218994</ele>
        <time>2014-05-08T14:16:34Z</time>
      </trkpt>
      <trkpt lat="43.32269" lon="-0.57874">
        <ele>147.218994</ele>
        <time>2014-05-08T14:16:38Z</time>
      </trkpt>
      <trkpt lat="43.32308" lon="-0.57882">
        <ele>146.738403</ele>
        <time>2014-05-08T14:16:47Z</time>
      </trkpt>
      <trkpt lat="43.32404" lon="-0.57896">
        <ele>145.7771</ele>
        <time>2014-05-08T14:17:04Z</time>
      </trkpt>
      <trkpt lat="43.32478" lon="-0.57916">
        <ele>144.815796</ele>
        <time>2014-05-08T14:17:18Z</time>
      </trkpt>
      <trkpt lat="43.32549" lon="-0.57904">
        <ele>144.815796</ele>
        <time>2014-05-08T14:17:31Z</time>
      </trkpt>
      <trkpt lat="43.32555" lon="-0.57903">
        <ele>144.815796</ele>
        <time>2014-05-08T14:17:32Z</time>
      </trkpt>
      <trkpt lat="43.326" lon="-0.57931">
        <ele>143.85437</ele>
        <time>2014-05-08T14:17:41Z</time>
      </trkpt>
      <trkpt lat="43.32587" lon="-0.57949">
        <ele>144.335205</ele>
        <time>2014-05-08T14:17:45Z</time>
      </trkpt>
      <trkpt lat="43.32487" lon="-0.57971">
        <ele>146.257813</ele>
        <time>2014-05-08T14:18:06Z</time>
      </trkpt>
      <trkpt lat="43.32487" lon="-0.57993">
        <ele>148.18042</ele>
        <time>2014-05-08T14:18:12Z</time>
      </trkpt>
      <trkpt lat="43.32523" lon="-0.58019">
        <ele>148.661011</ele>
        <time>2014-05-08T14:18:22Z</time>
      </trkpt>
      <trkpt lat="43.32534" lon="-0.58054">
        <ele>149.141602</ele>
        <time>2014-05-08T14:18:29Z</time>
      </trkpt>
      <trkpt lat="43.32533" lon="-0.58075">
        <ele>149.141602</ele>
        <time>2014-05-08T14:18:33Z</time>
      </trkpt>
      <trkpt lat="43.32568" lon="-0.58106">
        <ele>148.661011</ele>
        <time>2014-05-08T14:18:43Z</time>
      </trkpt>
      <trkpt lat="43.32614" lon="-0.58124">
        <ele>148.18042</ele>
        <time>2014-05-08T14:18:53Z</time>
      </trkpt>
      <trkpt lat="43.32627" lon="-0.58147">
        <ele>148.661011</ele>
        <time>2014-05-08T14:18:58Z</time>
      </trkpt>
      <trkpt lat="43.32638" lon="-0.58175">
        <ele>151.064209</ele>
        <time>2014-05-08T14:19:04Z</time>
      </trkpt>
      <trkpt lat="43.32648" lon="-0.58193">
        <ele>152.986938</ele>
        <time>2014-05-08T14:19:10Z</time>
      </trkpt>
      <trkpt lat="43.32685" lon="-0.58228">
        <ele>156.351563</ele>
        <time>2014-05-08T14:19:26Z</time>
      </trkpt>
      <trkpt lat="43.32744" lon="-0.5828">
        <ele>156.832153</ele>
        <time>2014-05-08T14:19:45Z</time>
      </trkpt>
      <trkpt lat="43.32804" lon="-0.58304">
        <ele>159.716187</ele>
        <time>2014-05-08T14:20:01Z</time>
      </trkpt>
      <trkpt lat="43.32866" lon="-0.58318">
        <ele>161.158203</ele>
        <time>2014-05-08T14:20:18Z</time>
      </trkpt>
      <trkpt lat="43.32917" lon="-0.58363">
        <ele>158.754761</ele>
        <time>2014-05-08T14:20:31Z</time>
      </trkpt>
      <trkpt lat="43.32922" lon="-0.58367">
        <ele>158.754761</ele>
        <time>2014-05-08T14:20:32Z</time>
      </trkpt>
      <trkpt lat="43.32963" lon="-0.58381">
        <ele>155.390259</ele>
        <time>2014-05-08T14:20:38Z</time>
      </trkpt>
      <trkpt lat="43.32992" lon="-0.5839">
        <ele>154.428955</ele>
        <time>2014-05-08T14:20:42Z</time>
      </trkpt>
      <trkpt lat="43.33017" lon="-0.58406">
        <ele>153.467651</ele>
        <time>2014-05-08T14:20:46Z</time>
      </trkpt>
      <trkpt lat="43.33042" lon="-0.58416">
        <ele>151.064209</ele>
        <time>2014-05-08T14:20:51Z</time>
      </trkpt>
      <trkpt lat="43.33099" lon="-0.58443">
        <ele>152.025757</ele>
        <time>2014-05-08T14:21:05Z</time>
      </trkpt>
      <trkpt lat="43.33116" lon="-0.58451">
        <ele>152.506348</ele>
        <time>2014-05-08T14:21:09Z</time>
      </trkpt>
      <trkpt lat="43.3313" lon="-0.58453">
        <ele>152.506348</ele>
        <time>2014-05-08T14:21:12Z</time>
      </trkpt>
      <trkpt lat="43.33139" lon="-0.58452">
        <ele>152.506348</ele>
        <time>2014-05-08T14:21:14Z</time>
      </trkpt>
      <trkpt lat="43.33171" lon="-0.58469">
        <ele>150.583618</ele>
        <time>2014-05-08T14:21:21Z</time>
      </trkpt>
      <trkpt lat="43.33179" lon="-0.58479">
        <ele>150.103027</ele>
        <time>2014-05-08T14:21:23Z</time>
      </trkpt>
      <trkpt lat="43.33202" lon="-0.58504">
        <ele>145.7771</ele>
        <time>2014-05-08T14:21:27Z</time>
      </trkpt>
      <trkpt lat="43.33214" lon="-0.58523">
        <ele>142.412476</ele>
        <time>2014-05-08T14:21:29Z</time>
      </trkpt>
      <trkpt lat="43.33259" lon="-0.58565">
        <ele>145.296387</ele>
        <time>2014-05-08T14:21:37Z</time>
      </trkpt>
      <trkpt lat="43.33276" lon="-0.58585">
        <ele>148.18042</ele>
        <time>2014-05-08T14:21:43Z</time>
      </trkpt>
      <trkpt lat="43.33279" lon="-0.58589">
        <ele>148.661011</ele>
        <time>2014-05-08T14:21:44Z</time>
      </trkpt>
      <trkpt lat="43.33315" lon="-0.58614">
        <ele>151.064209</ele>
        <time>2014-05-08T14:21:56Z</time>
      </trkpt>
      <trkpt lat="43.33387" lon="-0.58675">
        <ele>151.544922</ele>
        <time>2014-05-08T14:22:18Z</time>
      </trkpt>
      <trkpt lat="43.33443" lon="-0.58733">
        <ele>154.909546</ele>
        <time>2014-05-08T14:22:36Z</time>
      </trkpt>
      <trkpt lat="43.33508" lon="-0.58793">
        <ele>155.870972</ele>
        <time>2014-05-08T14:22:55Z</time>
      </trkpt>
      <trkpt lat="43.33545" lon="-0.5883">
        <ele>159.235474</ele>
        <time>2014-05-08T14:23:10Z</time>
      </trkpt>
      <trkpt lat="43.33582" lon="-0.5887">
        <ele>162.119507</ele>
        <time>2014-05-08T14:23:26Z</time>
      </trkpt>
      <trkpt lat="43.33611" lon="-0.58899">
        <ele>161.638916</ele>
        <time>2014-05-08T14:23:36Z</time>
      </trkpt>
      <trkpt lat="43.33633" lon="-0.58911">
        <ele>160.67749</ele>
        <time>2014-05-08T14:23:41Z</time>
      </trkpt>
      <trkpt lat="43.33646" lon="-0.58912">
        <ele>158.754761</ele>
        <time>2014-05-08T14:23:43Z</time>
      </trkpt>
      <trkpt lat="43.3367" lon="-0.58919">
        <ele>156.832153</ele>
        <time>2014-05-08T14:23:46Z</time>
      </trkpt>
      <trkpt lat="43.33722" lon="-0.58948">
        <ele>153.948364</ele>
        <time>2014-05-08T14:23:52Z</time>
      </trkpt>
      <trkpt lat="43.33738" lon="-0.58958">
        <ele>150.583618</ele>
        <time>2014-05-08T14:23:54Z</time>
      </trkpt>
      <trkpt lat="43.33758" lon="-0.58969">
        <ele>147.699707</ele>
        <time>2014-05-08T14:23:57Z</time>
      </trkpt>
      <trkpt lat="43.33763" lon="-0.58971">
        <ele>146.738403</ele>
        <time>2014-05-08T14:23:58Z</time>
      </trkpt>
      <trkpt lat="43.33808" lon="-0.58947">
        <ele>144.815796</ele>
        <time>2014-05-08T14:24:06Z</time>
      </trkpt>
      <trkpt lat="43.33812" lon="-0.5894">
        <ele>143.85437</ele>
        <time>2014-05-08T14:24:07Z</time>
      </trkpt>
      <trkpt lat="43.3382" lon="-0.58926">
        <ele>144.335205</ele>
        <time>2014-05-08T14:24:09Z</time>
      </trkpt>
      <trkpt lat="43.33829" lon="-0.58903">
        <ele>141.931763</ele>
        <time>2014-05-08T14:24:14Z</time>
      </trkpt>
      <trkpt lat="43.33851" lon="-0.58913">
        <ele>140.489868</ele>
        <time>2014-05-08T14:24:21Z</time>
      </trkpt>
      <trkpt lat="43.33922" lon="-0.58999">
        <ele>141.45105</ele>
        <time>2014-05-08T14:24:38Z</time>
      </trkpt>
      <trkpt lat="43.33991" lon="-0.59045">
        <ele>144.335205</ele>
        <time>2014-05-08T14:24:54Z</time>
      </trkpt>
      <trkpt lat="43.3408" lon="-0.59055">
        <ele>145.296387</ele>
        <time>2014-05-08T14:25:11Z</time>
      </trkpt>
      <trkpt lat="43.34182" lon="-0.59062">
        <ele>144.335205</ele>
        <time>2014-05-08T14:25:29Z</time>
      </trkpt>
      <trkpt lat="43.34324" lon="-0.59082">
        <ele>143.373657</ele>
        <time>2014-05-08T14:25:53Z</time>
      </trkpt>
      <trkpt lat="43.34397" lon="-0.59139">
        <ele>143.85437</ele>
        <time>2014-05-08T14:26:08Z</time>
      </trkpt>
      <trkpt lat="43.34429" lon="-0.59144">
        <ele>141.931763</ele>
        <time>2014-05-08T14:26:14Z</time>
      </trkpt>
      <trkpt lat="43.34439" lon="-0.59152">
        <ele>142.412476</ele>
        <time>2014-05-08T14:26:16Z</time>
      </trkpt>
      <trkpt lat="43.34504" lon="-0.59208">
        <ele>143.85437</ele>
        <time>2014-05-08T14:26:31Z</time>
      </trkpt>
      <trkpt lat="43.34591" lon="-0.59271">
        <ele>145.7771</ele>
        <time>2014-05-08T14:26:53Z</time>
      </trkpt>
      <trkpt lat="43.34624" lon="-0.59299">
        <ele>146.738403</ele>
        <time>2014-05-08T14:27:06Z</time>
      </trkpt>
      <trkpt lat="43.34633" lon="-0.59308">
        <ele>146.257813</ele>
        <time>2014-05-08T14:27:18Z</time>
      </trkpt>
      <trkpt lat="43.3468" lon="-0.59358">
        <ele>145.296387</ele>
        <time>2014-05-08T14:27:32Z</time>
      </trkpt>
      <trkpt lat="43.34691" lon="-0.59372">
        <ele>144.815796</ele>
        <time>2014-05-08T14:27:35Z</time>
      </trkpt>
      <trkpt lat="43.34703" lon="-0.59379">
        <ele>142.893066</ele>
        <time>2014-05-08T14:27:38Z</time>
      </trkpt>
      <trkpt lat="43.34714" lon="-0.59347">
        <ele>141.45105</ele>
        <time>2014-05-08T14:27:42Z</time>
      </trkpt>
      <trkpt lat="43.34718" lon="-0.59311">
        <ele>140.970459</ele>
        <time>2014-05-08T14:27:46Z</time>
      </trkpt>
      <trkpt lat="43.34737" lon="-0.59286">
        <ele>140.489868</ele>
        <time>2014-05-08T14:27:50Z</time>
      </trkpt>
      <trkpt lat="43.34769" lon="-0.59268">
        <ele>138.567261</ele>
        <time>2014-05-08T14:27:55Z</time>
      </trkpt>
      <trkpt lat="43.34782" lon="-0.59241">
        <ele>136.644653</ele>
        <time>2014-05-08T14:27:59Z</time>
      </trkpt>
      <trkpt lat="43.34788" lon="-0.59217">
        <ele>135.683105</ele>
        <time>2014-05-08T14:28:02Z</time>
      </trkpt>
      <trkpt lat="43.34809" lon="-0.59207">
        <ele>134.721924</ele>
        <time>2014-05-08T14:28:07Z</time>
      </trkpt>
      <trkpt lat="43.34839" lon="-0.59218">
        <ele>134.241211</ele>
        <time>2014-05-08T14:28:12Z</time>
      </trkpt>
      <trkpt lat="43.34871" lon="-0.59233">
        <ele>134.721924</ele>
        <time>2014-05-08T14:28:18Z</time>
      </trkpt>
      <trkpt lat="43.34882" lon="-0.59238">
        <ele>133.279907</ele>
        <time>2014-05-08T14:28:25Z</time>
      </trkpt>
      <trkpt lat="43.34901" lon="-0.59246">
        <ele>134.721924</ele>
        <time>2014-05-08T14:28:35Z</time>
      </trkpt>
      <trkpt lat="43.34908" lon="-0.5925">
        <ele>133.760498</ele>
        <time>2014-05-08T14:28:37Z</time>
      </trkpt>
      <trkpt lat="43.34968" lon="-0.59277">
        <ele>134.241211</ele>
        <time>2014-05-08T14:28:51Z</time>
      </trkpt>
      <trkpt lat="43.35045" lon="-0.59315">
        <ele>135.202515</ele>
        <time>2014-05-08T14:29:08Z</time>
      </trkpt>
      <trkpt lat="43.35106" lon="-0.59344">
        <ele>135.202515</ele>
        <time>2014-05-08T14:29:21Z</time>
      </trkpt>
      <trkpt lat="43.35125" lon="-0.59348">
        <ele>135.683105</ele>
        <time>2014-05-08T14:29:25Z</time>
      </trkpt>
      <trkpt lat="43.35211" lon="-0.59344">
        <ele>132.799316</ele>
        <time>2014-05-08T14:29:43Z</time>
      </trkpt>
      <trkpt lat="43.35229" lon="-0.59331">
        <ele>130.876709</ele>
        <time>2014-05-08T14:29:47Z</time>
      </trkpt>
      <trkpt lat="43.35262" lon="-0.59322">
        <ele>130.395996</ele>
        <time>2014-05-08T14:29:54Z</time>
      </trkpt>
      <trkpt lat="43.3531" lon="-0.59356">
        <ele>132.318604</ele>
        <time>2014-05-08T14:30:06Z</time>
      </trkpt>
      <trkpt lat="43.35327" lon="-0.59361">
        <ele>131.837891</ele>
        <time>2014-05-08T14:30:10Z</time>
      </trkpt>
      <trkpt lat="43.35385" lon="-0.59374">
        <ele>128.473389</ele>
        <time>2014-05-08T14:30:21Z</time>
      </trkpt>
      <trkpt lat="43.35391" lon="-0.59376">
        <ele>127.992554</ele>
        <time>2014-05-08T14:30:22Z</time>
      </trkpt>
      <trkpt lat="43.35424" lon="-0.59422">
        <ele>123.666748</ele>
        <time>2014-05-08T14:30:28Z</time>
      </trkpt>
      <trkpt lat="43.35451" lon="-0.59461">
        <ele>120.302124</ele>
        <time>2014-05-08T14:30:32Z</time>
      </trkpt>
      <trkpt lat="43.35462" lon="-0.59478">
        <ele>117.898804</ele>
        <time>2014-05-08T14:30:34Z</time>
      </trkpt>
      <trkpt lat="43.355" lon="-0.59478">
        <ele>115.976196</ele>
        <time>2014-05-08T14:30:40Z</time>
      </trkpt>
      <trkpt lat="43.35506" lon="-0.59477">
        <ele>115.014893</ele>
        <time>2014-05-08T14:30:41Z</time>
      </trkpt>
      <trkpt lat="43.35519" lon="-0.59476">
        <ele>115.495605</ele>
        <time>2014-05-08T14:30:43Z</time>
      </trkpt>
      <trkpt lat="43.35547" lon="-0.59462">
        <ele>115.014893</ele>
        <time>2014-05-08T14:30:48Z</time>
      </trkpt>
      <trkpt lat="43.35565" lon="-0.59441">
        <ele>114.53418</ele>
        <time>2014-05-08T14:30:52Z</time>
      </trkpt>
      <trkpt lat="43.356" lon="-0.59381">
        <ele>114.053589</ele>
        <time>2014-05-08T14:31:01Z</time>
      </trkpt>
      <trkpt lat="43.35617" lon="-0.59363">
        <ele>115.014893</ele>
        <time>2014-05-08T14:31:05Z</time>
      </trkpt>
      <trkpt lat="43.35691" lon="-0.59292">
        <ele>115.014893</ele>
        <time>2014-05-08T14:31:22Z</time>
      </trkpt>
      <trkpt lat="43.35751" lon="-0.59239">
        <ele>115.495605</ele>
        <time>2014-05-08T14:31:36Z</time>
      </trkpt>
      <trkpt lat="43.35806" lon="-0.59205">
        <ele>115.495605</ele>
        <time>2014-05-08T14:31:49Z</time>
      </trkpt>
      <trkpt lat="43.3581" lon="-0.5916">
        <ele>115.014893</ele>
        <time>2014-05-08T14:31:59Z</time>
      </trkpt>
      <trkpt lat="43.35803" lon="-0.59138">
        <ele>115.495605</ele>
        <time>2014-05-08T14:32:03Z</time>
      </trkpt>
      <trkpt lat="43.35797" lon="-0.59129">
        <ele>115.495605</ele>
        <time>2014-05-08T14:32:05Z</time>
      </trkpt>
      <trkpt lat="43.35785" lon="-0.59121">
        <ele>115.495605</ele>
        <time>2014-05-08T14:32:08Z</time>
      </trkpt>
      <trkpt lat="43.3577" lon="-0.59107">
        <ele>115.014893</ele>
        <time>2014-05-08T14:32:12Z</time>
      </trkpt>
      <trkpt lat="43.35754" lon="-0.59049">
        <ele>115.976196</ele>
        <time>2014-05-08T14:32:22Z</time>
      </trkpt>
      <trkpt lat="43.35752" lon="-0.59021">
        <ele>115.976196</ele>
        <time>2014-05-08T14:32:26Z</time>
      </trkpt>
      <trkpt lat="43.35751" lon="-0.59008">
        <ele>116.456787</ele>
        <time>2014-05-08T14:32:28Z</time>
      </trkpt>
      <trkpt lat="43.35744" lon="-0.58966">
        <ele>116.456787</ele>
        <time>2014-05-08T14:32:35Z</time>
      </trkpt>
      <trkpt lat="43.35734" lon="-0.58949">
        <ele>115.976196</ele>
        <time>2014-05-08T14:32:39Z</time>
      </trkpt>
      <trkpt lat="43.35722" lon="-0.58936">
        <ele>115.495605</ele>
        <time>2014-05-08T14:32:43Z</time>
      </trkpt>
      <trkpt lat="43.35714" lon="-0.58931">
        <ele>116.456787</ele>
        <time>2014-05-08T14:32:45Z</time>
      </trkpt>
      <trkpt lat="43.35706" lon="-0.58927">
        <ele>116.456787</ele>
        <time>2014-05-08T14:32:47Z</time>
      </trkpt>
      <trkpt lat="43.35686" lon="-0.58915">
        <ele>115.976196</ele>
        <time>2014-05-08T14:32:52Z</time>
      </trkpt>
      <trkpt lat="43.35636" lon="-0.58885">
        <ele>117.418213</ele>
        <time>2014-05-08T14:33:06Z</time>
      </trkpt>
      <trkpt lat="43.3561" lon="-0.58871">
        <ele>116.9375</ele>
        <time>2014-05-08T14:33:13Z</time>
      </trkpt>
      <trkpt lat="43.35603" lon="-0.5884">
        <ele>116.9375</ele>
        <time>2014-05-08T14:33:19Z</time>
      </trkpt>
      <trkpt lat="43.3559" lon="-0.58803">
        <ele>117.418213</ele>
        <time>2014-05-08T14:33:26Z</time>
      </trkpt>
      <trkpt lat="43.35582" lon="-0.58776">
        <ele>116.9375</ele>
        <time>2014-05-08T14:33:31Z</time>
      </trkpt>
      <trkpt lat="43.35579" lon="-0.58727">
        <ele>116.9375</ele>
        <time>2014-05-08T14:33:40Z</time>
      </trkpt>
      <trkpt lat="43.35577" lon="-0.58704">
        <ele>116.456787</ele>
        <time>2014-05-08T14:33:44Z</time>
      </trkpt>
      <trkpt lat="43.35568" lon="-0.58643">
        <ele>117.418213</ele>
        <time>2014-05-08T14:33:56Z</time>
      </trkpt>
      <trkpt lat="43.35555" lon="-0.58572">
        <ele>117.418213</ele>
        <time>2014-05-08T14:34:09Z</time>
      </trkpt>
      <trkpt lat="43.35572" lon="-0.5851">
        <ele>116.9375</ele>
        <time>2014-05-08T14:34:20Z</time>
      </trkpt>
      <trkpt lat="43.35581" lon="-0.58497">
        <ele>117.418213</ele>
        <time>2014-05-08T14:34:23Z</time>
      </trkpt>
      <trkpt lat="43.35588" lon="-0.58483">
        <ele>116.9375</ele>
        <time>2014-05-08T14:34:26Z</time>
      </trkpt>
      <trkpt lat="43.35594" lon="-0.58468">
        <ele>117.418213</ele>
        <time>2014-05-08T14:34:29Z</time>
      </trkpt>
      <trkpt lat="43.35601" lon="-0.5844">
        <ele>117.418213</ele>
        <time>2014-05-08T14:34:34Z</time>
      </trkpt>
      <trkpt lat="43.35603" lon="-0.5841">
        <ele>117.418213</ele>
        <time>2014-05-08T14:34:39Z</time>
      </trkpt>
      <trkpt lat="43.35602" lon="-0.58399">
        <ele>117.898804</ele>
        <time>2014-05-08T14:34:41Z</time>
      </trkpt>
      <trkpt lat="43.35608" lon="-0.58359">
        <ele>117.418213</ele>
        <time>2014-05-08T14:34:47Z</time>
      </trkpt>
      <trkpt lat="43.35609" lon="-0.58341">
        <ele>117.418213</ele>
        <time>2014-05-08T14:34:50Z</time>
      </trkpt>
      <trkpt lat="43.35616" lon="-0.5832">
        <ele>117.418213</ele>
        <time>2014-05-08T14:34:54Z</time>
      </trkpt>
      <trkpt lat="43.35653" lon="-0.58303">
        <ele>116.9375</ele>
        <time>2014-05-08T14:35:03Z</time>
      </trkpt>
      <trkpt lat="43.35659" lon="-0.58284">
        <ele>117.418213</ele>
        <time>2014-05-08T14:35:08Z</time>
      </trkpt>
      <trkpt lat="43.35653" lon="-0.5824">
        <ele>119.34082</ele>
        <time>2014-05-08T14:35:16Z</time>
      </trkpt>
      <trkpt lat="43.35649" lon="-0.58193">
        <ele>119.34082</ele>
        <time>2014-05-08T14:35:23Z</time>
      </trkpt>
      <trkpt lat="43.35651" lon="-0.58173">
        <ele>118.379395</ele>
        <time>2014-05-08T14:35:26Z</time>
      </trkpt>
      <trkpt lat="43.35698" lon="-0.58002">
        <ele>119.821411</ele>
        <time>2014-05-08T14:35:52Z</time>
      </trkpt>
      <trkpt lat="43.35746" lon="-0.57833">
        <ele>119.821411</ele>
        <time>2014-05-08T14:36:18Z</time>
      </trkpt>
      <trkpt lat="43.35802" lon="-0.57638">
        <ele>119.34082</ele>
        <time>2014-05-08T14:36:47Z</time>
      </trkpt>
      <trkpt lat="43.35808" lon="-0.57614">
        <ele>119.821411</ele>
        <time>2014-05-08T14:36:51Z</time>
      </trkpt>
      <trkpt lat="43.35807" lon="-0.57582">
        <ele>119.34082</ele>
        <time>2014-05-08T14:36:56Z</time>
      </trkpt>
      <trkpt lat="43.35804" lon="-0.57551">
        <ele>119.34082</ele>
        <time>2014-05-08T14:37:00Z</time>
      </trkpt>
      <trkpt lat="43.35772" lon="-0.57457">
        <ele>119.34082</ele>
        <time>2014-05-08T14:37:14Z</time>
      </trkpt>
      <trkpt lat="43.35748" lon="-0.57349">
        <ele>119.34082</ele>
        <time>2014-05-08T14:37:30Z</time>
      </trkpt>
      <trkpt lat="43.35708" lon="-0.57239">
        <ele>119.34082</ele>
        <time>2014-05-08T14:37:48Z</time>
      </trkpt>
      <trkpt lat="43.35676" lon="-0.57136">
        <ele>120.302124</ele>
        <time>2014-05-08T14:38:05Z</time>
      </trkpt>
      <trkpt lat="43.35666" lon="-0.57041">
        <ele>120.302124</ele>
        <time>2014-05-08T14:38:19Z</time>
      </trkpt>
      <trkpt lat="43.35682" lon="-0.56919">
        <ele>120.782837</ele>
        <time>2014-05-08T14:38:37Z</time>
      </trkpt>
      <trkpt lat="43.35686" lon="-0.56892">
        <ele>121.26355</ele>
        <time>2014-05-08T14:38:41Z</time>
      </trkpt>
      <trkpt lat="43.35706" lon="-0.56792">
        <ele>121.744141</ele>
        <time>2014-05-08T14:38:56Z</time>
      </trkpt>
      <trkpt lat="43.35711" lon="-0.56765">
        <ele>121.744141</ele>
        <time>2014-05-08T14:39:00Z</time>
      </trkpt>
      <trkpt lat="43.35704" lon="-0.56745">
        <ele>120.782837</ele>
        <time>2014-05-08T14:39:07Z</time>
      </trkpt>
      <trkpt lat="43.35606" lon="-0.56814">
        <ele>120.782837</ele>
        <time>2014-05-08T14:39:29Z</time>
      </trkpt>
      <trkpt lat="43.35559" lon="-0.56848">
        <ele>120.302124</ele>
        <time>2014-05-08T14:39:40Z</time>
      </trkpt>
      <trkpt lat="43.35535" lon="-0.56857">
        <ele>121.26355</ele>
        <time>2014-05-08T14:39:46Z</time>
      </trkpt>
      <trkpt lat="43.35521" lon="-0.56835">
        <ele>120.782837</ele>
        <time>2014-05-08T14:39:52Z</time>
      </trkpt>
      <trkpt lat="43.35511" lon="-0.56726">
        <ele>121.26355</ele>
        <time>2014-05-08T14:40:09Z</time>
      </trkpt>
      <trkpt lat="43.3551" lon="-0.56705">
        <ele>121.26355</ele>
        <time>2014-05-08T14:40:12Z</time>
      </trkpt>
      <trkpt lat="43.35507" lon="-0.56673">
        <ele>120.782837</ele>
        <time>2014-05-08T14:40:17Z</time>
      </trkpt>
      <trkpt lat="43.35505" lon="-0.56661">
        <ele>121.26355</ele>
        <time>2014-05-08T14:40:19Z</time>
      </trkpt>
      <trkpt lat="43.35477" lon="-0.5659">
        <ele>121.744141</ele>
        <time>2014-05-08T14:40:31Z</time>
      </trkpt>
      <trkpt lat="43.35464" lon="-0.56495">
        <ele>121.26355</ele>
        <time>2014-05-08T14:40:46Z</time>
      </trkpt>
      <trkpt lat="43.3546" lon="-0.56486">
        <ele>121.744141</ele>
        <time>2014-05-08T14:40:48Z</time>
      </trkpt>
      <trkpt lat="43.35446" lon="-0.5648">
        <ele>121.26355</ele>
        <time>2014-05-08T14:40:52Z</time>
      </trkpt>
      <trkpt lat="43.35358" lon="-0.56477">
        <ele>122.224731</ele>
        <time>2014-05-08T14:41:09Z</time>
      </trkpt>
      <trkpt lat="43.35254" lon="-0.56481">
        <ele>123.186157</ele>
        <time>2014-05-08T14:41:29Z</time>
      </trkpt>
      <trkpt lat="43.35164" lon="-0.56459">
        <ele>123.666748</ele>
        <time>2014-05-08T14:41:46Z</time>
      </trkpt>
      <trkpt lat="43.35149" lon="-0.56452">
        <ele>122.705444</ele>
        <time>2014-05-08T14:41:49Z</time>
      </trkpt>
      <trkpt lat="43.35136" lon="-0.56434">
        <ele>123.666748</ele>
        <time>2014-05-08T14:41:53Z</time>
      </trkpt>
      <trkpt lat="43.35127" lon="-0.56408">
        <ele>124.147339</ele>
        <time>2014-05-08T14:41:57Z</time>
      </trkpt>
      <trkpt lat="43.35114" lon="-0.56365">
        <ele>123.186157</ele>
        <time>2014-05-08T14:42:04Z</time>
      </trkpt>
      <trkpt lat="43.35121" lon="-0.56181">
        <ele>122.705444</ele>
        <time>2014-05-08T14:42:29Z</time>
      </trkpt>
      <trkpt lat="43.35121" lon="-0.56126">
        <ele>123.186157</ele>
        <time>2014-05-08T14:42:37Z</time>
      </trkpt>
      <trkpt lat="43.35082" lon="-0.56003">
        <ele>123.186157</ele>
        <time>2014-05-08T14:42:57Z</time>
      </trkpt>
      <trkpt lat="43.35038" lon="-0.55872">
        <ele>123.186157</ele>
        <time>2014-05-08T14:43:18Z</time>
      </trkpt>
      <trkpt lat="43.34995" lon="-0.55744">
        <ele>122.705444</ele>
        <time>2014-05-08T14:43:38Z</time>
      </trkpt>
      <trkpt lat="43.34976" lon="-0.5569">
        <ele>122.705444</ele>
        <time>2014-05-08T14:43:47Z</time>
      </trkpt>
      <trkpt lat="43.34966" lon="-0.55666">
        <ele>122.705444</ele>
        <time>2014-05-08T14:43:51Z</time>
      </trkpt>
      <trkpt lat="43.34971" lon="-0.5563">
        <ele>123.186157</ele>
        <time>2014-05-08T14:43:57Z</time>
      </trkpt>
      <trkpt lat="43.34994" lon="-0.55594">
        <ele>123.186157</ele>
        <time>2014-05-08T14:44:04Z</time>
      </trkpt>
      <trkpt lat="43.35" lon="-0.55548">
        <ele>122.224731</ele>
        <time>2014-05-08T14:44:11Z</time>
      </trkpt>
      <trkpt lat="43.34979" lon="-0.55471">
        <ele>122.705444</ele>
        <time>2014-05-08T14:44:23Z</time>
      </trkpt>
      <trkpt lat="43.34981" lon="-0.5544">
        <ele>123.186157</ele>
        <time>2014-05-08T14:44:28Z</time>
      </trkpt>
      <trkpt lat="43.35035" lon="-0.5531">
        <ele>122.705444</ele>
        <time>2014-05-08T14:44:50Z</time>
      </trkpt>
      <trkpt lat="43.35046" lon="-0.55281">
        <ele>123.186157</ele>
        <time>2014-05-08T14:44:55Z</time>
      </trkpt>
      <trkpt lat="43.35065" lon="-0.5527">
        <ele>124.147339</ele>
        <time>2014-05-08T14:45:00Z</time>
      </trkpt>
      <trkpt lat="43.35074" lon="-0.55276">
        <ele>123.666748</ele>
        <time>2014-05-08T14:45:02Z</time>
      </trkpt>
      <trkpt lat="43.35172" lon="-0.55367">
        <ele>123.666748</ele>
        <time>2014-05-08T14:45:24Z</time>
      </trkpt>
      <trkpt lat="43.35182" lon="-0.55375">
        <ele>123.666748</ele>
        <time>2014-05-08T14:45:26Z</time>
      </trkpt>
      <trkpt lat="43.35207" lon="-0.55379">
        <ele>123.666748</ele>
        <time>2014-05-08T14:45:31Z</time>
      </trkpt>
      <trkpt lat="43.35219" lon="-0.55375">
        <ele>123.666748</ele>
        <time>2014-05-08T14:45:34Z</time>
      </trkpt>
      <trkpt lat="43.35228" lon="-0.55344">
        <ele>124.147339</ele>
        <time>2014-05-08T14:45:41Z</time>
      </trkpt>
      <trkpt lat="43.35223" lon="-0.55321">
        <ele>124.628052</ele>
        <time>2014-05-08T14:45:45Z</time>
      </trkpt>
      <trkpt lat="43.3522" lon="-0.55269">
        <ele>125.589355</ele>
        <time>2014-05-08T14:45:54Z</time>
      </trkpt>
      <trkpt lat="43.35216" lon="-0.55232">
        <ele>125.589355</ele>
        <time>2014-05-08T14:46:00Z</time>
      </trkpt>
      <trkpt lat="43.35193" lon="-0.55192">
        <ele>127.031372</ele>
        <time>2014-05-08T14:46:08Z</time>
      </trkpt>
      <trkpt lat="43.35164" lon="-0.55143">
        <ele>128.473389</ele>
        <time>2014-05-08T14:46:19Z</time>
      </trkpt>
      <trkpt lat="43.35151" lon="-0.55128">
        <ele>128.473389</ele>
        <time>2014-05-08T14:46:23Z</time>
      </trkpt>
      <trkpt lat="43.35143" lon="-0.55122">
        <ele>127.511963</ele>
        <time>2014-05-08T14:46:25Z</time>
      </trkpt>
      <trkpt lat="43.35134" lon="-0.55118">
        <ele>127.992554</ele>
        <time>2014-05-08T14:46:27Z</time>
      </trkpt>
      <trkpt lat="43.35114" lon="-0.55112">
        <ele>128.473389</ele>
        <time>2014-05-08T14:46:32Z</time>
      </trkpt>
      <trkpt lat="43.3504" lon="-0.55074">
        <ele>127.511963</ele>
        <time>2014-05-08T14:46:47Z</time>
      </trkpt>
      <trkpt lat="43.34978" lon="-0.54995">
        <ele>127.511963</ele>
        <time>2014-05-08T14:47:03Z</time>
      </trkpt>
      <trkpt lat="43.34946" lon="-0.54929">
        <ele>129.915283</ele>
        <time>2014-05-08T14:47:16Z</time>
      </trkpt>
      <trkpt lat="43.34915" lon="-0.54903">
        <ele>130.876709</ele>
        <time>2014-05-08T14:47:26Z</time>
      </trkpt>
      <trkpt lat="43.34896" lon="-0.54894">
        <ele>130.395996</ele>
        <time>2014-05-08T14:47:30Z</time>
      </trkpt>
      <trkpt lat="43.34859" lon="-0.54888">
        <ele>129.434692</ele>
        <time>2014-05-08T14:47:37Z</time>
      </trkpt>
      <trkpt lat="43.34837" lon="-0.54873">
        <ele>129.915283</ele>
        <time>2014-05-08T14:47:42Z</time>
      </trkpt>
      <trkpt lat="43.34821" lon="-0.54845">
        <ele>128.473389</ele>
        <time>2014-05-08T14:47:47Z</time>
      </trkpt>
      <trkpt lat="43.34779" lon="-0.54791">
        <ele>129.915283</ele>
        <time>2014-05-08T14:47:58Z</time>
      </trkpt>
      <trkpt lat="43.34739" lon="-0.54738">
        <ele>133.279907</ele>
        <time>2014-05-08T14:48:12Z</time>
      </trkpt>
      <trkpt lat="43.34723" lon="-0.54726">
        <ele>132.318604</ele>
        <time>2014-05-08T14:48:16Z</time>
      </trkpt>
      <trkpt lat="43.34704" lon="-0.54714">
        <ele>132.318604</ele>
        <time>2014-05-08T14:48:20Z</time>
      </trkpt>
      <trkpt lat="43.34678" lon="-0.54691">
        <ele>132.799316</ele>
        <time>2014-05-08T14:48:26Z</time>
      </trkpt>
      <trkpt lat="43.34667" lon="-0.5468">
        <ele>132.799316</ele>
        <time>2014-05-08T14:48:29Z</time>
      </trkpt>
      <trkpt lat="43.34654" lon="-0.5467">
        <ele>133.760498</ele>
        <time>2014-05-08T14:48:33Z</time>
      </trkpt>
      <trkpt lat="43.34625" lon="-0.54665">
        <ele>133.279907</ele>
        <time>2014-05-08T14:48:41Z</time>
      </trkpt>
      <trkpt lat="43.34604" lon="-0.54644">
        <ele>131.837891</ele>
        <time>2014-05-08T14:48:46Z</time>
      </trkpt>
      <trkpt lat="43.34587" lon="-0.54573">
        <ele>130.876709</ele>
        <time>2014-05-08T14:48:55Z</time>
      </trkpt>
      <trkpt lat="43.34553" lon="-0.54545">
        <ele>130.876709</ele>
        <time>2014-05-08T14:49:04Z</time>
      </trkpt>
      <trkpt lat="43.34544" lon="-0.54548">
        <ele>130.395996</ele>
        <time>2014-05-08T14:49:06Z</time>
      </trkpt>
      <trkpt lat="43.34519" lon="-0.54548">
        <ele>130.876709</ele>
        <time>2014-05-08T14:49:11Z</time>
      </trkpt>
      <trkpt lat="43.34496" lon="-0.54533">
        <ele>130.876709</ele>
        <time>2014-05-08T14:49:16Z</time>
      </trkpt>
      <trkpt lat="43.34461" lon="-0.5451">
        <ele>129.434692</ele>
        <time>2014-05-08T14:49:23Z</time>
      </trkpt>
      <trkpt lat="43.3444" lon="-0.54504">
        <ele>129.434692</ele>
        <time>2014-05-08T14:49:27Z</time>
      </trkpt>
      <trkpt lat="43.34367" lon="-0.54466">
        <ele>127.511963</ele>
        <time>2014-05-08T14:49:41Z</time>
      </trkpt>
      <trkpt lat="43.34332" lon="-0.54424">
        <ele>127.992554</ele>
        <time>2014-05-08T14:49:49Z</time>
      </trkpt>
      <trkpt lat="43.34321" lon="-0.544">
        <ele>128.473389</ele>
        <time>2014-05-08T14:49:53Z</time>
      </trkpt>
      <trkpt lat="43.34315" lon="-0.54373">
        <ele>129.434692</ele>
        <time>2014-05-08T14:49:57Z</time>
      </trkpt>
      <trkpt lat="43.34312" lon="-0.5436">
        <ele>129.434692</ele>
        <time>2014-05-08T14:49:59Z</time>
      </trkpt>
      <trkpt lat="43.34291" lon="-0.54314">
        <ele>129.915283</ele>
        <time>2014-05-08T14:50:07Z</time>
      </trkpt>
      <trkpt lat="43.34276" lon="-0.54291">
        <ele>128.954102</ele>
        <time>2014-05-08T14:50:11Z</time>
      </trkpt>
      <trkpt lat="43.34246" lon="-0.54241">
        <ele>127.992554</ele>
        <time>2014-05-08T14:50:20Z</time>
      </trkpt>
      <trkpt lat="43.34225" lon="-0.54222">
        <ele>127.031372</ele>
        <time>2014-05-08T14:50:25Z</time>
      </trkpt>
      <trkpt lat="43.34162" lon="-0.54183">
        <ele>127.511963</ele>
        <time>2014-05-08T14:50:38Z</time>
      </trkpt>
      <trkpt lat="43.34154" lon="-0.54177">
        <ele>128.473389</ele>
        <time>2014-05-08T14:50:40Z</time>
      </trkpt>
      <trkpt lat="43.34138" lon="-0.54164">
        <ele>129.434692</ele>
        <time>2014-05-08T14:50:44Z</time>
      </trkpt>
      <trkpt lat="43.34096" lon="-0.54126">
        <ele>130.395996</ele>
        <time>2014-05-08T14:50:57Z</time>
      </trkpt>
      <trkpt lat="43.34053" lon="-0.54061">
        <ele>131.837891</ele>
        <time>2014-05-08T14:51:12Z</time>
      </trkpt>
      <trkpt lat="43.34035" lon="-0.54033">
        <ele>131.837891</ele>
        <time>2014-05-08T14:51:18Z</time>
      </trkpt>
      <trkpt lat="43.33984" lon="-0.53974">
        <ele>130.876709</ele>
        <time>2014-05-08T14:51:31Z</time>
      </trkpt>
      <trkpt lat="43.33951" lon="-0.53944">
        <ele>130.395996</ele>
        <time>2014-05-08T14:51:38Z</time>
      </trkpt>
      <trkpt lat="43.33891" lon="-0.53904">
        <ele>129.434692</ele>
        <time>2014-05-08T14:51:50Z</time>
      </trkpt>
      <trkpt lat="43.33867" lon="-0.53893">
        <ele>129.434692</ele>
        <time>2014-05-08T14:51:55Z</time>
      </trkpt>
      <trkpt lat="43.33857" lon="-0.53887">
        <ele>130.395996</ele>
        <time>2014-05-08T14:51:57Z</time>
      </trkpt>
      <trkpt lat="43.3384" lon="-0.53874">
        <ele>129.915283</ele>
        <time>2014-05-08T14:52:01Z</time>
      </trkpt>
      <trkpt lat="43.33818" lon="-0.53849">
        <ele>130.395996</ele>
        <time>2014-05-08T14:52:07Z</time>
      </trkpt>
      <trkpt lat="43.33812" lon="-0.5384">
        <ele>129.915283</ele>
        <time>2014-05-08T14:52:09Z</time>
      </trkpt>
      <trkpt lat="43.33792" lon="-0.53817">
        <ele>130.395996</ele>
        <time>2014-05-08T14:52:14Z</time>
      </trkpt>
      <trkpt lat="43.33785" lon="-0.53808">
        <ele>130.876709</ele>
        <time>2014-05-08T14:52:16Z</time>
      </trkpt>
      <trkpt lat="43.33772" lon="-0.5379">
        <ele>130.395996</ele>
        <time>2014-05-08T14:52:20Z</time>
      </trkpt>
      <trkpt lat="43.3371" lon="-0.53696">
        <ele>129.915283</ele>
        <time>2014-05-08T14:52:38Z</time>
      </trkpt>
      <trkpt lat="43.33658" lon="-0.53596">
        <ele>130.395996</ele>
        <time>2014-05-08T14:52:57Z</time>
      </trkpt>
      <trkpt lat="43.33603" lon="-0.53528">
        <ele>129.915283</ele>
        <time>2014-05-08T14:53:13Z</time>
      </trkpt>
      <trkpt lat="43.33589" lon="-0.5352">
        <ele>129.915283</ele>
        <time>2014-05-08T14:53:16Z</time>
      </trkpt>
      <trkpt lat="43.33504" lon="-0.53493">
        <ele>130.876709</ele>
        <time>2014-05-08T14:53:34Z</time>
      </trkpt>
      <trkpt lat="43.33428" lon="-0.53464">
        <ele>131.3573</ele>
        <time>2014-05-08T14:53:52Z</time>
      </trkpt>
      <trkpt lat="43.33408" lon="-0.5345">
        <ele>131.837891</ele>
        <time>2014-05-08T14:53:57Z</time>
      </trkpt>
      <trkpt lat="43.33368" lon="-0.53401">
        <ele>132.799316</ele>
        <time>2014-05-08T14:54:12Z</time>
      </trkpt>
      <trkpt lat="43.33361" lon="-0.53356">
        <ele>133.760498</ele>
        <time>2014-05-08T14:54:24Z</time>
      </trkpt>
      <trkpt lat="43.33407" lon="-0.53296">
        <ele>135.683105</ele>
        <time>2014-05-08T14:54:42Z</time>
      </trkpt>
      <trkpt lat="43.33453" lon="-0.53238">
        <ele>137.125244</ele>
        <time>2014-05-08T14:54:59Z</time>
      </trkpt>
      <trkpt lat="43.33474" lon="-0.53242">
        <ele>138.567261</ele>
        <time>2014-05-08T14:55:08Z</time>
      </trkpt>
      <trkpt lat="43.33476" lon="-0.53241">
        <ele>139.047852</ele>
        <time>2014-05-08T14:55:09Z</time>
      </trkpt>
      <trkpt lat="43.335" lon="-0.53228">
        <ele>141.45105</ele>
        <time>2014-05-08T14:55:22Z</time>
      </trkpt>
      <trkpt lat="43.33527" lon="-0.53232">
        <ele>144.815796</ele>
        <time>2014-05-08T14:55:34Z</time>
      </trkpt>
      <trkpt lat="43.33556" lon="-0.53233">
        <ele>146.738403</ele>
        <time>2014-05-08T14:55:48Z</time>
      </trkpt>
      <trkpt lat="43.33579" lon="-0.53239">
        <ele>148.18042</ele>
        <time>2014-05-08T14:56:01Z</time>
      </trkpt>
      <trkpt lat="43.33601" lon="-0.5324">
        <ele>151.544922</ele>
        <time>2014-05-08T14:56:15Z</time>
      </trkpt>
      <trkpt lat="43.3362" lon="-0.53245">
        <ele>154.909546</ele>
        <time>2014-05-08T14:56:28Z</time>
      </trkpt>
      <trkpt lat="43.33642" lon="-0.53254">
        <ele>157.793579</ele>
        <time>2014-05-08T14:56:42Z</time>
      </trkpt>
      <trkpt lat="43.33664" lon="-0.5327">
        <ele>159.235474</ele>
        <time>2014-05-08T14:56:56Z</time>
      </trkpt>
      <trkpt lat="43.33699" lon="-0.53303">
        <ele>161.158203</ele>
        <time>2014-05-08T14:57:15Z</time>
      </trkpt>
      <trkpt lat="43.33723" lon="-0.53311">
        <ele>164.042114</ele>
        <time>2014-05-08T14:57:29Z</time>
      </trkpt>
      <trkpt lat="43.33735" lon="-0.53306">
        <ele>166.445313</ele>
        <time>2014-05-08T14:57:37Z</time>
      </trkpt>
      <trkpt lat="43.33739" lon="-0.53304">
        <ele>166.445313</ele>
        <time>2014-05-08T14:57:40Z</time>
      </trkpt>
      <trkpt lat="43.33768" lon="-0.53306">
        <ele>168.848755</ele>
        <time>2014-05-08T14:57:57Z</time>
      </trkpt>
      <trkpt lat="43.33782" lon="-0.5331">
        <ele>168.848755</ele>
        <time>2014-05-08T14:58:05Z</time>
      </trkpt>
      <trkpt lat="43.33788" lon="-0.5331">
        <ele>169.810059</ele>
        <time>2014-05-08T14:58:09Z</time>
      </trkpt>
      <trkpt lat="43.33806" lon="-0.53308">
        <ele>171.732666</ele>
        <time>2014-05-08T14:58:21Z</time>
      </trkpt>
      <trkpt lat="43.33827" lon="-0.53307">
        <ele>174.616577</ele>
        <time>2014-05-08T14:58:35Z</time>
      </trkpt>
      <trkpt lat="43.33831" lon="-0.53306">
        <ele>175.09729</ele>
        <time>2014-05-08T14:58:38Z</time>
      </trkpt>
      <trkpt lat="43.33854" lon="-0.53307">
        <ele>178.461914</ele>
        <time>2014-05-08T14:58:53Z</time>
      </trkpt>
      <trkpt lat="43.33873" lon="-0.5331">
        <ele>179.903809</ele>
        <time>2014-05-08T14:59:05Z</time>
      </trkpt>
      <trkpt lat="43.33898" lon="-0.53312">
        <ele>182.307129</ele>
        <time>2014-05-08T14:59:19Z</time>
      </trkpt>
      <trkpt lat="43.33919" lon="-0.53321">
        <ele>184.229858</ele>
        <time>2014-05-08T14:59:30Z</time>
      </trkpt>
      <trkpt lat="43.33945" lon="-0.53318">
        <ele>185.671753</ele>
        <time>2014-05-08T14:59:44Z</time>
      </trkpt>
      <trkpt lat="43.33967" lon="-0.53307">
        <ele>188.555786</ele>
        <time>2014-05-08T14:59:58Z</time>
      </trkpt>
      <trkpt lat="43.33996" lon="-0.53316">
        <ele>190.478394</ele>
        <time>2014-05-08T15:00:15Z</time>
      </trkpt>
      <trkpt lat="43.34003" lon="-0.53316">
        <ele>190.958984</ele>
        <time>2014-05-08T15:00:19Z</time>
      </trkpt>
      <trkpt lat="43.34027" lon="-0.53312">
        <ele>192.881714</ele>
        <time>2014-05-08T15:00:31Z</time>
      </trkpt>
      <trkpt lat="43.34035" lon="-0.53312">
        <ele>194.32373</ele>
        <time>2014-05-08T15:00:37Z</time>
      </trkpt>
      <trkpt lat="43.34048" lon="-0.533">
        <ele>196.726929</ele>
        <time>2014-05-08T15:00:50Z</time>
      </trkpt>
      <trkpt lat="43.34051" lon="-0.53288">
        <ele>198.168945</ele>
        <time>2014-05-08T15:00:56Z</time>
      </trkpt>
      <trkpt lat="43.3406" lon="-0.5328">
        <ele>199.61084</ele>
        <time>2014-05-08T15:01:02Z</time>
      </trkpt>
      <trkpt lat="43.34083" lon="-0.53269">
        <ele>201.533569</ele>
        <time>2014-05-08T15:01:16Z</time>
      </trkpt>
      <trkpt lat="43.34098" lon="-0.53255">
        <ele>204.41748</ele>
        <time>2014-05-08T15:01:29Z</time>
      </trkpt>
      <trkpt lat="43.34115" lon="-0.53241">
        <ele>206.820679</ele>
        <time>2014-05-08T15:01:42Z</time>
      </trkpt>
      <trkpt lat="43.34116" lon="-0.5324">
        <ele>207.782104</ele>
        <time>2014-05-08T15:01:43Z</time>
      </trkpt>
      <trkpt lat="43.34126" lon="-0.53214">
        <ele>210.185425</ele>
        <time>2014-05-08T15:01:59Z</time>
      </trkpt>
      <trkpt lat="43.34132" lon="-0.5319">
        <ele>213.069336</ele>
        <time>2014-05-08T15:02:12Z</time>
      </trkpt>
      <trkpt lat="43.34138" lon="-0.53182">
        <ele>214.51123</ele>
        <time>2014-05-08T15:02:19Z</time>
      </trkpt>
      <trkpt lat="43.34163" lon="-0.53182">
        <ele>217.875977</ele>
        <time>2014-05-08T15:02:36Z</time>
      </trkpt>
      <trkpt lat="43.3418" lon="-0.53172">
        <ele>217.875977</ele>
        <time>2014-05-08T15:02:49Z</time>
      </trkpt>
      <trkpt lat="43.34201" lon="-0.53144">
        <ele>217.875977</ele>
        <time>2014-05-08T15:03:01Z</time>
      </trkpt>
      <trkpt lat="43.34238" lon="-0.53104">
        <ele>217.395386</ele>
        <time>2014-05-08T15:03:12Z</time>
      </trkpt>
      <trkpt lat="43.34256" lon="-0.53068">
        <ele>217.395386</ele>
        <time>2014-05-08T15:03:21Z</time>
      </trkpt>
      <trkpt lat="43.34282" lon="-0.53038">
        <ele>218.83728</ele>
        <time>2014-05-08T15:03:31Z</time>
      </trkpt>
      <trkpt lat="43.34316" lon="-0.5301">
        <ele>218.356567</ele>
        <time>2014-05-08T15:03:40Z</time>
      </trkpt>
      <trkpt lat="43.34359" lon="-0.52991">
        <ele>216.43396</ele>
        <time>2014-05-08T15:03:48Z</time>
      </trkpt>
      <trkpt lat="43.34391" lon="-0.53009">
        <ele>215.953247</ele>
        <time>2014-05-08T15:03:54Z</time>
      </trkpt>
      <trkpt lat="43.34421" lon="-0.5306">
        <ele>219.798584</ele>
        <time>2014-05-08T15:04:06Z</time>
      </trkpt>
      <trkpt lat="43.34427" lon="-0.53107">
        <ele>219.317993</ele>
        <time>2014-05-08T15:04:16Z</time>
      </trkpt>
      <trkpt lat="43.34431" lon="-0.53161">
        <ele>218.83728</ele>
        <time>2014-05-08T15:04:26Z</time>
      </trkpt>
      <trkpt lat="43.34432" lon="-0.53176">
        <ele>217.395386</ele>
        <time>2014-05-08T15:04:28Z</time>
      </trkpt>
      <trkpt lat="43.34436" lon="-0.53191">
        <ele>216.914673</ele>
        <time>2014-05-08T15:04:30Z</time>
      </trkpt>
      <trkpt lat="43.34458" lon="-0.53247">
        <ele>218.83728</ele>
        <time>2014-05-08T15:04:40Z</time>
      </trkpt>
      <trkpt lat="43.34489" lon="-0.53313">
        <ele>219.317993</ele>
        <time>2014-05-08T15:04:53Z</time>
      </trkpt>
      <trkpt lat="43.34495" lon="-0.53354">
        <ele>219.798584</ele>
        <time>2014-05-08T15:05:03Z</time>
      </trkpt>
      <trkpt lat="43.34493" lon="-0.5337">
        <ele>218.83728</ele>
        <time>2014-05-08T15:05:05Z</time>
      </trkpt>
      <trkpt lat="43.34493" lon="-0.53391">
        <ele>217.395386</ele>
        <time>2014-05-08T15:05:07Z</time>
      </trkpt>
      <trkpt lat="43.34498" lon="-0.53413">
        <ele>215.953247</ele>
        <time>2014-05-08T15:05:09Z</time>
      </trkpt>
      <trkpt lat="43.34506" lon="-0.53433">
        <ele>215.953247</ele>
        <time>2014-05-08T15:05:11Z</time>
      </trkpt>
      <trkpt lat="43.34524" lon="-0.53473">
        <ele>215.472656</ele>
        <time>2014-05-08T15:05:16Z</time>
      </trkpt>
      <trkpt lat="43.34533" lon="-0.53543">
        <ele>215.953247</ele>
        <time>2014-05-08T15:05:28Z</time>
      </trkpt>
      <trkpt lat="43.34533" lon="-0.53549">
        <ele>216.43396</ele>
        <time>2014-05-08T15:05:29Z</time>
      </trkpt>
      <trkpt lat="43.34533" lon="-0.53584">
        <ele>215.953247</ele>
        <time>2014-05-08T15:05:34Z</time>
      </trkpt>
      <trkpt lat="43.34546" lon="-0.53632">
        <ele>218.83728</ele>
        <time>2014-05-08T15:05:44Z</time>
      </trkpt>
      <trkpt lat="43.34564" lon="-0.53653">
        <ele>220.279175</ele>
        <time>2014-05-08T15:05:53Z</time>
      </trkpt>
      <trkpt lat="43.34585" lon="-0.53647">
        <ele>221.240601</ele>
        <time>2014-05-08T15:06:05Z</time>
      </trkpt>
      <trkpt lat="43.34604" lon="-0.53624">
        <ele>220.279175</ele>
        <time>2014-05-08T15:06:12Z</time>
      </trkpt>
      <trkpt lat="43.34631" lon="-0.53571">
        <ele>217.875977</ele>
        <time>2014-05-08T15:06:20Z</time>
      </trkpt>
      <trkpt lat="43.34637" lon="-0.53553">
        <ele>216.914673</ele>
        <time>2014-05-08T15:06:22Z</time>
      </trkpt>
      <trkpt lat="43.34645" lon="-0.53522">
        <ele>213.550049</ele>
        <time>2014-05-08T15:06:25Z</time>
      </trkpt>
      <trkpt lat="43.34647" lon="-0.53511">
        <ele>213.069336</ele>
        <time>2014-05-08T15:06:26Z</time>
      </trkpt>
      <trkpt lat="43.34667" lon="-0.53449">
        <ele>211.627441</ele>
        <time>2014-05-08T15:06:31Z</time>
      </trkpt>
      <trkpt lat="43.34688" lon="-0.53404">
        <ele>209.224121</ele>
        <time>2014-05-08T15:06:35Z</time>
      </trkpt>
      <trkpt lat="43.347" lon="-0.53328">
        <ele>207.301392</ele>
        <time>2014-05-08T15:06:42Z</time>
      </trkpt>
      <trkpt lat="43.34707" lon="-0.53301">
        <ele>207.301392</ele>
        <time>2014-05-08T15:06:45Z</time>
      </trkpt>
      <trkpt lat="43.34716" lon="-0.53279">
        <ele>206.820679</ele>
        <time>2014-05-08T15:06:48Z</time>
      </trkpt>
      <trkpt lat="43.34719" lon="-0.53267">
        <ele>206.340088</ele>
        <time>2014-05-08T15:06:50Z</time>
      </trkpt>
      <trkpt lat="43.34726" lon="-0.53249">
        <ele>206.340088</ele>
        <time>2014-05-08T15:06:53Z</time>
      </trkpt>
      <trkpt lat="43.34744" lon="-0.53226">
        <ele>205.859497</ele>
        <time>2014-05-08T15:06:57Z</time>
      </trkpt>
      <trkpt lat="43.34773" lon="-0.53189">
        <ele>202.494873</ele>
        <time>2014-05-08T15:07:02Z</time>
      </trkpt>
      <trkpt lat="43.3478" lon="-0.53182">
        <ele>202.975464</ele>
        <time>2014-05-08T15:07:03Z</time>
      </trkpt>
      <trkpt lat="43.34818" lon="-0.53164">
        <ele>201.052856</ele>
        <time>2014-05-08T15:07:08Z</time>
      </trkpt>
      <trkpt lat="43.34841" lon="-0.53164">
        <ele>199.61084</ele>
        <time>2014-05-08T15:07:11Z</time>
      </trkpt>
      <trkpt lat="43.34894" lon="-0.53169">
        <ele>202.975464</ele>
        <time>2014-05-08T15:07:21Z</time>
      </trkpt>
      <trkpt lat="43.34925" lon="-0.53175">
        <ele>204.41748</ele>
        <time>2014-05-08T15:07:31Z</time>
      </trkpt>
      <trkpt lat="43.34943" lon="-0.53203">
        <ele>205.859497</ele>
        <time>2014-05-08T15:07:41Z</time>
      </trkpt>
      <trkpt lat="43.34965" lon="-0.53243">
        <ele>207.782104</ele>
        <time>2014-05-08T15:07:53Z</time>
      </trkpt>
      <trkpt lat="43.34973" lon="-0.53293">
        <ele>206.340088</ele>
        <time>2014-05-08T15:08:03Z</time>
      </trkpt>
      <trkpt lat="43.34983" lon="-0.5333">
        <ele>202.975464</ele>
        <time>2014-05-08T15:08:07Z</time>
      </trkpt>
      <trkpt lat="43.34995" lon="-0.53353">
        <ele>204.41748</ele>
        <time>2014-05-08T15:08:10Z</time>
      </trkpt>
      <trkpt lat="43.35001" lon="-0.53385">
        <ele>202.975464</ele>
        <time>2014-05-08T15:08:14Z</time>
      </trkpt>
      <trkpt lat="43.35002" lon="-0.53404">
        <ele>202.494873</ele>
        <time>2014-05-08T15:08:16Z</time>
      </trkpt>
      <trkpt lat="43.35006" lon="-0.53527">
        <ele>200.572266</ele>
        <time>2014-05-08T15:08:30Z</time>
      </trkpt>
      <trkpt lat="43.35006" lon="-0.5361">
        <ele>199.130127</ele>
        <time>2014-05-08T15:08:40Z</time>
      </trkpt>
      <trkpt lat="43.35033" lon="-0.53699">
        <ele>195.284912</ele>
        <time>2014-05-08T15:08:50Z</time>
      </trkpt>
      <trkpt lat="43.3505" lon="-0.53757">
        <ele>197.20752</ele>
        <time>2014-05-08T15:08:58Z</time>
      </trkpt>
      <trkpt lat="43.35056" lon="-0.5379">
        <ele>198.168945</ele>
        <time>2014-05-08T15:09:04Z</time>
      </trkpt>
      <trkpt lat="43.35064" lon="-0.53823">
        <ele>200.572266</ele>
        <time>2014-05-08T15:09:11Z</time>
      </trkpt>
      <trkpt lat="43.35071" lon="-0.53869">
        <ele>202.494873</ele>
        <time>2014-05-08T15:09:21Z</time>
      </trkpt>
      <trkpt lat="43.35072" lon="-0.53874">
        <ele>202.494873</ele>
        <time>2014-05-08T15:09:22Z</time>
      </trkpt>
      <trkpt lat="43.35068" lon="-0.53939">
        <ele>202.494873</ele>
        <time>2014-05-08T15:09:34Z</time>
      </trkpt>
      <trkpt lat="43.35089" lon="-0.53991">
        <ele>204.41748</ele>
        <time>2014-05-08T15:09:45Z</time>
      </trkpt>
      <trkpt lat="43.35111" lon="-0.54027">
        <ele>205.859497</ele>
        <time>2014-05-08T15:09:57Z</time>
      </trkpt>
      <trkpt lat="43.35148" lon="-0.5404">
        <ele>205.378784</ele>
        <time>2014-05-08T15:10:09Z</time>
      </trkpt>
      <trkpt lat="43.35171" lon="-0.54053">
        <ele>203.93689</ele>
        <time>2014-05-08T15:10:15Z</time>
      </trkpt>
      <trkpt lat="43.3519" lon="-0.54075">
        <ele>202.494873</ele>
        <time>2014-05-08T15:10:20Z</time>
      </trkpt>
      <trkpt lat="43.35187" lon="-0.54097">
        <ele>199.130127</ele>
        <time>2014-05-08T15:10:23Z</time>
      </trkpt>
      <trkpt lat="43.35184" lon="-0.54104">
        <ele>197.688232</ele>
        <time>2014-05-08T15:10:24Z</time>
      </trkpt>
      <trkpt lat="43.35179" lon="-0.5412">
        <ele>196.246338</ele>
        <time>2014-05-08T15:10:26Z</time>
      </trkpt>
      <trkpt lat="43.3517" lon="-0.54161">
        <ele>192.401123</ele>
        <time>2014-05-08T15:10:33Z</time>
      </trkpt>
      <trkpt lat="43.35169" lon="-0.54184">
        <ele>190.958984</ele>
        <time>2014-05-08T15:10:36Z</time>
      </trkpt>
      <trkpt lat="43.35173" lon="-0.54201">
        <ele>189.997681</ele>
        <time>2014-05-08T15:10:38Z</time>
      </trkpt>
      <trkpt lat="43.35189" lon="-0.54249">
        <ele>187.59436</ele>
        <time>2014-05-08T15:10:43Z</time>
      </trkpt>
      <trkpt lat="43.35197" lon="-0.54291">
        <ele>185.191162</ele>
        <time>2014-05-08T15:10:47Z</time>
      </trkpt>
      <trkpt lat="43.352" lon="-0.54301">
        <ele>184.710571</ele>
        <time>2014-05-08T15:10:48Z</time>
      </trkpt>
      <trkpt lat="43.35199" lon="-0.54336">
        <ele>185.671753</ele>
        <time>2014-05-08T15:10:52Z</time>
      </trkpt>
      <trkpt lat="43.35194" lon="-0.5435">
        <ele>185.671753</ele>
        <time>2014-05-08T15:10:54Z</time>
      </trkpt>
      <trkpt lat="43.35169" lon="-0.5447">
        <ele>185.191162</ele>
        <time>2014-05-08T15:11:11Z</time>
      </trkpt>
      <trkpt lat="43.35167" lon="-0.54478">
        <ele>184.710571</ele>
        <time>2014-05-08T15:11:12Z</time>
      </trkpt>
      <trkpt lat="43.35164" lon="-0.54515">
        <ele>178.461914</ele>
        <time>2014-05-08T15:11:16Z</time>
      </trkpt>
      <trkpt lat="43.35164" lon="-0.54527">
        <ele>178.461914</ele>
        <time>2014-05-08T15:11:17Z</time>
      </trkpt>
      <trkpt lat="43.35165" lon="-0.54596">
        <ele>174.135864</ele>
        <time>2014-05-08T15:11:23Z</time>
      </trkpt>
      <trkpt lat="43.35123" lon="-0.54635">
        <ele>171.252075</ele>
        <time>2014-05-08T15:11:29Z</time>
      </trkpt>
      <trkpt lat="43.3511" lon="-0.54643">
        <ele>169.329468</ele>
        <time>2014-05-08T15:11:31Z</time>
      </trkpt>
      <trkpt lat="43.35072" lon="-0.54657">
        <ele>166.926025</ele>
        <time>2014-05-08T15:11:38Z</time>
      </trkpt>
      <trkpt lat="43.35054" lon="-0.5465">
        <ele>163.561523</ele>
        <time>2014-05-08T15:11:41Z</time>
      </trkpt>
      <trkpt lat="43.35023" lon="-0.54647">
        <ele>161.638916</ele>
        <time>2014-05-08T15:11:45Z</time>
      </trkpt>
      <trkpt lat="43.35006" lon="-0.54642">
        <ele>158.27417</ele>
        <time>2014-05-08T15:11:47Z</time>
      </trkpt>
      <trkpt lat="43.34975" lon="-0.54634">
        <ele>154.428955</ele>
        <time>2014-05-08T15:11:51Z</time>
      </trkpt>
      <trkpt lat="43.34962" lon="-0.54631">
        <ele>152.506348</ele>
        <time>2014-05-08T15:11:53Z</time>
      </trkpt>
      <trkpt lat="43.34921" lon="-0.54658">
        <ele>147.699707</ele>
        <time>2014-05-08T15:12:01Z</time>
      </trkpt>
      <trkpt lat="43.34918" lon="-0.54667">
        <ele>146.738403</ele>
        <time>2014-05-08T15:12:02Z</time>
      </trkpt>
      <trkpt lat="43.34891" lon="-0.54743">
        <ele>143.373657</ele>
        <time>2014-05-08T15:12:10Z</time>
      </trkpt>
      <trkpt lat="43.34874" lon="-0.54766">
        <ele>140.489868</ele>
        <time>2014-05-08T15:12:13Z</time>
      </trkpt>
      <trkpt lat="43.34866" lon="-0.54773">
        <ele>140.009155</ele>
        <time>2014-05-08T15:12:14Z</time>
      </trkpt>
      <trkpt lat="43.34845" lon="-0.5479">
        <ele>137.125244</ele>
        <time>2014-05-08T15:12:17Z</time>
      </trkpt>
      <trkpt lat="43.34828" lon="-0.54811">
        <ele>135.202515</ele>
        <time>2014-05-08T15:12:20Z</time>
      </trkpt>
      <trkpt lat="43.3482" lon="-0.54844">
        <ele>133.279907</ele>
        <time>2014-05-08T15:12:24Z</time>
      </trkpt>
      <trkpt lat="43.34828" lon="-0.54863">
        <ele>133.279907</ele>
        <time>2014-05-08T15:12:27Z</time>
      </trkpt>
      <trkpt lat="43.34838" lon="-0.54877">
        <ele>133.760498</ele>
        <time>2014-05-08T15:12:30Z</time>
      </trkpt>
      <trkpt lat="43.3486" lon="-0.5489">
        <ele>133.760498</ele>
        <time>2014-05-08T15:12:35Z</time>
      </trkpt>
      <trkpt lat="43.34885" lon="-0.54894">
        <ele>133.279907</ele>
        <time>2014-05-08T15:12:40Z</time>
      </trkpt>
      <trkpt lat="43.34926" lon="-0.54912">
        <ele>134.241211</ele>
        <time>2014-05-08T15:12:49Z</time>
      </trkpt>
      <trkpt lat="43.34952" lon="-0.54944">
        <ele>134.241211</ele>
        <time>2014-05-08T15:12:56Z</time>
      </trkpt>
      <trkpt lat="43.3496" lon="-0.5496">
        <ele>132.799316</ele>
        <time>2014-05-08T15:12:58Z</time>
      </trkpt>
      <trkpt lat="43.34998" lon="-0.55021">
        <ele>131.3573</ele>
        <time>2014-05-08T15:13:07Z</time>
      </trkpt>
      <trkpt lat="43.35068" lon="-0.5509">
        <ele>131.837891</ele>
        <time>2014-05-08T15:13:24Z</time>
      </trkpt>
      <trkpt lat="43.35118" lon="-0.55113">
        <ele>132.799316</ele>
        <time>2014-05-08T15:13:35Z</time>
      </trkpt>
      <trkpt lat="43.35127" lon="-0.55115">
        <ele>133.279907</ele>
        <time>2014-05-08T15:13:37Z</time>
      </trkpt>
      <trkpt lat="43.35161" lon="-0.55133">
        <ele>132.799316</ele>
        <time>2014-05-08T15:13:44Z</time>
      </trkpt>
      <trkpt lat="43.35184" lon="-0.55165">
        <ele>131.837891</ele>
        <time>2014-05-08T15:13:50Z</time>
      </trkpt>
      <trkpt lat="43.35211" lon="-0.55211">
        <ele>130.395996</ele>
        <time>2014-05-08T15:13:58Z</time>
      </trkpt>
      <trkpt lat="43.3522" lon="-0.55231">
        <ele>129.915283</ele>
        <time>2014-05-08T15:14:01Z</time>
      </trkpt>
      <trkpt lat="43.35223" lon="-0.55316">
        <ele>128.954102</ele>
        <time>2014-05-08T15:14:12Z</time>
      </trkpt>
      <trkpt lat="43.35231" lon="-0.55355">
        <ele>127.992554</ele>
        <time>2014-05-08T15:14:17Z</time>
      </trkpt>
      <trkpt lat="43.35214" lon="-0.55382">
        <ele>128.954102</ele>
        <time>2014-05-08T15:14:23Z</time>
      </trkpt>
      <trkpt lat="43.35196" lon="-0.55386">
        <ele>127.511963</ele>
        <time>2014-05-08T15:14:26Z</time>
      </trkpt>
      <trkpt lat="43.35174" lon="-0.55379">
        <ele>127.031372</ele>
        <time>2014-05-08T15:14:30Z</time>
      </trkpt>
      <trkpt lat="43.3508" lon="-0.55289">
        <ele>126.550659</ele>
        <time>2014-05-08T15:14:51Z</time>
      </trkpt>
      <trkpt lat="43.35068" lon="-0.55277">
        <ele>127.031372</ele>
        <time>2014-05-08T15:14:54Z</time>
      </trkpt>
      <trkpt lat="43.35044" lon="-0.55282">
        <ele>127.031372</ele>
        <time>2014-05-08T15:15:00Z</time>
      </trkpt>
      <trkpt lat="43.35006" lon="-0.55381">
        <ele>125.589355</ele>
        <time>2014-05-08T15:15:15Z</time>
      </trkpt>
      <trkpt lat="43.3498" lon="-0.55448">
        <ele>126.069946</ele>
        <time>2014-05-08T15:15:25Z</time>
      </trkpt>
      <trkpt lat="43.34979" lon="-0.55476">
        <ele>126.550659</ele>
        <time>2014-05-08T15:15:29Z</time>
      </trkpt>
      <trkpt lat="43.35003" lon="-0.5556">
        <ele>126.069946</ele>
        <time>2014-05-08T15:15:41Z</time>
      </trkpt>
      <trkpt lat="43.34999" lon="-0.55595">
        <ele>125.589355</ele>
        <time>2014-05-08T15:15:46Z</time>
      </trkpt>
      <trkpt lat="43.3497" lon="-0.55641">
        <ele>125.589355</ele>
        <time>2014-05-08T15:15:54Z</time>
      </trkpt>
      <trkpt lat="43.34966" lon="-0.55667">
        <ele>125.108765</ele>
        <time>2014-05-08T15:15:58Z</time>
      </trkpt>
      <trkpt lat="43.35007" lon="-0.55791">
        <ele>124.628052</ele>
        <time>2014-05-08T15:16:17Z</time>
      </trkpt>
      <trkpt lat="43.35057" lon="-0.55936">
        <ele>125.108765</ele>
        <time>2014-05-08T15:16:37Z</time>
      </trkpt>
      <trkpt lat="43.35108" lon="-0.5608">
        <ele>125.108765</ele>
        <time>2014-05-08T15:16:57Z</time>
      </trkpt>
      <trkpt lat="43.35124" lon="-0.56178">
        <ele>124.628052</ele>
        <time>2014-05-08T15:17:11Z</time>
      </trkpt>
      <trkpt lat="43.35119" lon="-0.5634">
        <ele>124.628052</ele>
        <time>2014-05-08T15:17:32Z</time>
      </trkpt>
      <trkpt lat="43.35117" lon="-0.56378">
        <ele>124.628052</ele>
        <time>2014-05-08T15:17:37Z</time>
      </trkpt>
      <trkpt lat="43.35135" lon="-0.56426">
        <ele>125.108765</ele>
        <time>2014-05-08T15:17:45Z</time>
      </trkpt>
      <trkpt lat="43.35136" lon="-0.56433">
        <ele>124.147339</ele>
        <time>2014-05-08T15:17:46Z</time>
      </trkpt>
      <trkpt lat="43.35154" lon="-0.5646">
        <ele>125.589355</ele>
        <time>2014-05-08T15:17:52Z</time>
      </trkpt>
      <trkpt lat="43.35269" lon="-0.56481">
        <ele>124.147339</ele>
        <time>2014-05-08T15:18:12Z</time>
      </trkpt>
      <trkpt lat="43.35374" lon="-0.56477">
        <ele>123.186157</ele>
        <time>2014-05-08T15:18:30Z</time>
      </trkpt>
      <trkpt lat="43.35447" lon="-0.56482">
        <ele>122.705444</ele>
        <time>2014-05-08T15:18:42Z</time>
      </trkpt>
      <trkpt lat="43.35469" lon="-0.56513">
        <ele>123.186157</ele>
        <time>2014-05-08T15:18:48Z</time>
      </trkpt>
      <trkpt lat="43.35473" lon="-0.56562">
        <ele>123.186157</ele>
        <time>2014-05-08T15:18:54Z</time>
      </trkpt>
      <trkpt lat="43.35482" lon="-0.566">
        <ele>122.705444</ele>
        <time>2014-05-08T15:18:59Z</time>
      </trkpt>
      <trkpt lat="43.35486" lon="-0.56621">
        <ele>122.705444</ele>
        <time>2014-05-08T15:19:02Z</time>
      </trkpt>
      <trkpt lat="43.35509" lon="-0.56676">
        <ele>122.705444</ele>
        <time>2014-05-08T15:19:10Z</time>
      </trkpt>
      <trkpt lat="43.35512" lon="-0.56701">
        <ele>121.744141</ele>
        <time>2014-05-08T15:19:14Z</time>
      </trkpt>
      <trkpt lat="43.35524" lon="-0.56807">
        <ele>122.705444</ele>
        <time>2014-05-08T15:19:33Z</time>
      </trkpt>
      <trkpt lat="43.35527" lon="-0.56854">
        <ele>121.26355</ele>
        <time>2014-05-08T15:19:42Z</time>
      </trkpt>
      <trkpt lat="43.35539" lon="-0.56858">
        <ele>122.705444</ele>
        <time>2014-05-08T15:19:46Z</time>
      </trkpt>
      <trkpt lat="43.35562" lon="-0.56849">
        <ele>121.26355</ele>
        <time>2014-05-08T15:19:52Z</time>
      </trkpt>
      <trkpt lat="43.3565" lon="-0.56787">
        <ele>122.224731</ele>
        <time>2014-05-08T15:20:14Z</time>
      </trkpt>
      <trkpt lat="43.35682" lon="-0.56764">
        <ele>122.224731</ele>
        <time>2014-05-08T15:20:22Z</time>
      </trkpt>
      <trkpt lat="43.3569" lon="-0.56758">
        <ele>121.744141</ele>
        <time>2014-05-08T15:20:24Z</time>
      </trkpt>
      <trkpt lat="43.3571" lon="-0.56742">
        <ele>122.224731</ele>
        <time>2014-05-08T15:20:30Z</time>
      </trkpt>
      <trkpt lat="43.35717" lon="-0.56755">
        <ele>122.224731</ele>
        <time>2014-05-08T15:20:35Z</time>
      </trkpt>
      <trkpt lat="43.35692" lon="-0.56869">
        <ele>121.744141</ele>
        <time>2014-05-08T15:20:53Z</time>
      </trkpt>
      <trkpt lat="43.35672" lon="-0.56983">
        <ele>121.26355</ele>
        <time>2014-05-08T15:21:10Z</time>
      </trkpt>
      <trkpt lat="43.35669" lon="-0.57105">
        <ele>121.26355</ele>
        <time>2014-05-08T15:21:28Z</time>
      </trkpt>
      <trkpt lat="43.357" lon="-0.5722">
        <ele>121.744141</ele>
        <time>2014-05-08T15:21:46Z</time>
      </trkpt>
      <trkpt lat="43.35746" lon="-0.57343">
        <ele>119.34082</ele>
        <time>2014-05-08T15:22:05Z</time>
      </trkpt>
      <trkpt lat="43.35748" lon="-0.57357">
        <ele>119.34082</ele>
        <time>2014-05-08T15:22:07Z</time>
      </trkpt>
      <trkpt lat="43.3577" lon="-0.57456">
        <ele>119.821411</ele>
        <time>2014-05-08T15:22:22Z</time>
      </trkpt>
      <trkpt lat="43.35785" lon="-0.57484">
        <ele>118.379395</ele>
        <time>2014-05-08T15:22:27Z</time>
      </trkpt>
      <trkpt lat="43.35807" lon="-0.57565">
        <ele>118.860107</ele>
        <time>2014-05-08T15:22:39Z</time>
      </trkpt>
      <trkpt lat="43.35809" lon="-0.57606">
        <ele>119.821411</ele>
        <time>2014-05-08T15:22:45Z</time>
      </trkpt>
      <trkpt lat="43.35812" lon="-0.57616">
        <ele>119.821411</ele>
        <time>2014-05-08T15:22:48Z</time>
      </trkpt>
      <trkpt lat="43.35808" lon="-0.57635">
        <ele>120.302124</ele>
        <time>2014-05-08T15:22:52Z</time>
      </trkpt>
      <trkpt lat="43.35798" lon="-0.57664">
        <ele>119.821411</ele>
        <time>2014-05-08T15:22:57Z</time>
      </trkpt>
      <trkpt lat="43.35764" lon="-0.57789">
        <ele>119.821411</ele>
        <time>2014-05-08T15:23:16Z</time>
      </trkpt>
      <trkpt lat="43.3571" lon="-0.57977">
        <ele>120.302124</ele>
        <time>2014-05-08T15:23:42Z</time>
      </trkpt>
      <trkpt lat="43.35659" lon="-0.5816">
        <ele>120.302124</ele>
        <time>2014-05-08T15:24:08Z</time>
      </trkpt>
      <trkpt lat="43.35656" lon="-0.58174">
        <ele>119.821411</ele>
        <time>2014-05-08T15:24:10Z</time>
      </trkpt>
      <trkpt lat="43.35654" lon="-0.58204">
        <ele>120.302124</ele>
        <time>2014-05-08T15:24:14Z</time>
      </trkpt>
      <trkpt lat="43.35663" lon="-0.58277">
        <ele>119.821411</ele>
        <time>2014-05-08T15:24:27Z</time>
      </trkpt>
      <trkpt lat="43.35659" lon="-0.58296">
        <ele>118.379395</ele>
        <time>2014-05-08T15:24:31Z</time>
      </trkpt>
      <trkpt lat="43.35633" lon="-0.58306">
        <ele>117.898804</ele>
        <time>2014-05-08T15:24:38Z</time>
      </trkpt>
      <trkpt lat="43.35622" lon="-0.58319">
        <ele>118.379395</ele>
        <time>2014-05-08T15:24:42Z</time>
      </trkpt>
      <trkpt lat="43.35618" lon="-0.58329">
        <ele>118.379395</ele>
        <time>2014-05-08T15:24:44Z</time>
      </trkpt>
      <trkpt lat="43.35612" lon="-0.5835">
        <ele>117.898804</ele>
        <time>2014-05-08T15:24:48Z</time>
      </trkpt>
      <trkpt lat="43.35608" lon="-0.58422">
        <ele>118.379395</ele>
        <time>2014-05-08T15:25:01Z</time>
      </trkpt>
      <trkpt lat="43.35594" lon="-0.58479">
        <ele>117.898804</ele>
        <time>2014-05-08T15:25:11Z</time>
      </trkpt>
      <trkpt lat="43.35581" lon="-0.58505">
        <ele>118.860107</ele>
        <time>2014-05-08T15:25:16Z</time>
      </trkpt>
      <trkpt lat="43.35559" lon="-0.58573">
        <ele>118.860107</ele>
        <time>2014-05-08T15:25:29Z</time>
      </trkpt>
      <trkpt lat="43.35563" lon="-0.58595">
        <ele>118.860107</ele>
        <time>2014-05-08T15:25:33Z</time>
      </trkpt>
      <trkpt lat="43.35572" lon="-0.58662">
        <ele>118.379395</ele>
        <time>2014-05-08T15:25:45Z</time>
      </trkpt>
      <trkpt lat="43.35575" lon="-0.58693">
        <ele>117.898804</ele>
        <time>2014-05-08T15:25:50Z</time>
      </trkpt>
      <trkpt lat="43.35578" lon="-0.58773">
        <ele>118.379395</ele>
        <time>2014-05-08T15:26:04Z</time>
      </trkpt>
      <trkpt lat="43.35595" lon="-0.58819">
        <ele>117.418213</ele>
        <time>2014-05-08T15:26:14Z</time>
      </trkpt>
      <trkpt lat="43.35602" lon="-0.58863">
        <ele>117.418213</ele>
        <time>2014-05-08T15:26:23Z</time>
      </trkpt>
      <trkpt lat="43.35603" lon="-0.58868">
        <ele>117.418213</ele>
        <time>2014-05-08T15:26:24Z</time>
      </trkpt>
      <trkpt lat="43.3562" lon="-0.5888">
        <ele>117.418213</ele>
        <time>2014-05-08T15:26:29Z</time>
      </trkpt>
      <trkpt lat="43.35645" lon="-0.58889">
        <ele>116.9375</ele>
        <time>2014-05-08T15:26:37Z</time>
      </trkpt>
      <trkpt lat="43.35667" lon="-0.58901">
        <ele>116.456787</ele>
        <time>2014-05-08T15:26:42Z</time>
      </trkpt>
      <trkpt lat="43.35702" lon="-0.58923">
        <ele>116.456787</ele>
        <time>2014-05-08T15:26:51Z</time>
      </trkpt>
      <trkpt lat="43.3572" lon="-0.58935">
        <ele>116.9375</ele>
        <time>2014-05-08T15:26:56Z</time>
      </trkpt>
      <trkpt lat="43.35736" lon="-0.58944">
        <ele>116.9375</ele>
        <time>2014-05-08T15:27:00Z</time>
      </trkpt>
      <trkpt lat="43.35751" lon="-0.58978">
        <ele>116.9375</ele>
        <time>2014-05-08T15:27:07Z</time>
      </trkpt>
      <trkpt lat="43.35754" lon="-0.58995">
        <ele>116.456787</ele>
        <time>2014-05-08T15:27:10Z</time>
      </trkpt>
      <trkpt lat="43.35756" lon="-0.59024">
        <ele>116.9375</ele>
        <time>2014-05-08T15:27:15Z</time>
      </trkpt>
      <trkpt lat="43.35763" lon="-0.5908">
        <ele>117.418213</ele>
        <time>2014-05-08T15:27:25Z</time>
      </trkpt>
      <trkpt lat="43.35767" lon="-0.59091">
        <ele>116.456787</ele>
        <time>2014-05-08T15:27:27Z</time>
      </trkpt>
      <trkpt lat="43.35781" lon="-0.59115">
        <ele>116.456787</ele>
        <time>2014-05-08T15:27:32Z</time>
      </trkpt>
      <trkpt lat="43.35814" lon="-0.59146">
        <ele>116.9375</ele>
        <time>2014-05-08T15:27:43Z</time>
      </trkpt>
      <trkpt lat="43.35809" lon="-0.59194">
        <ele>117.418213</ele>
        <time>2014-05-08T15:27:51Z</time>
      </trkpt>
      <trkpt lat="43.35794" lon="-0.59216">
        <ele>117.898804</ele>
        <time>2014-05-08T15:27:57Z</time>
      </trkpt>
      <trkpt lat="43.35785" lon="-0.59219">
        <ele>117.418213</ele>
        <time>2014-05-08T15:27:59Z</time>
      </trkpt>
      <trkpt lat="43.35703" lon="-0.59277">
        <ele>116.9375</ele>
        <time>2014-05-08T15:28:18Z</time>
      </trkpt>
      <trkpt lat="43.3565" lon="-0.59339">
        <ele>115.976196</ele>
        <time>2014-05-08T15:28:32Z</time>
      </trkpt>
      <trkpt lat="43.35609" lon="-0.59369">
        <ele>115.976196</ele>
        <time>2014-05-08T15:28:42Z</time>
      </trkpt>
      <trkpt lat="43.35568" lon="-0.59431">
        <ele>115.495605</ele>
        <time>2014-05-08T15:28:54Z</time>
      </trkpt>
      <trkpt lat="43.35552" lon="-0.59456">
        <ele>116.456787</ele>
        <time>2014-05-08T15:28:59Z</time>
      </trkpt>
      <trkpt lat="43.3549" lon="-0.59482">
        <ele>116.9375</ele>
        <time>2014-05-08T15:29:13Z</time>
      </trkpt>
      <trkpt lat="43.35475" lon="-0.59489">
        <ele>117.418213</ele>
        <time>2014-05-08T15:29:17Z</time>
      </trkpt>
      <trkpt lat="43.35455" lon="-0.59481">
        <ele>117.898804</ele>
        <time>2014-05-08T15:29:23Z</time>
      </trkpt>
      <trkpt lat="43.35434" lon="-0.59452">
        <ele>121.26355</ele>
        <time>2014-05-08T15:29:32Z</time>
      </trkpt>
      <trkpt lat="43.3543" lon="-0.59446">
        <ele>122.705444</ele>
        <time>2014-05-08T15:29:34Z</time>
      </trkpt>
      <trkpt lat="43.35413" lon="-0.59418">
        <ele>124.628052</ele>
        <time>2014-05-08T15:29:46Z</time>
      </trkpt>
      <trkpt lat="43.35402" lon="-0.59399">
        <ele>127.031372</ele>
        <time>2014-05-08T15:29:56Z</time>
      </trkpt>
      <trkpt lat="43.35381" lon="-0.59374">
        <ele>129.915283</ele>
        <time>2014-05-08T15:30:11Z</time>
      </trkpt>
      <trkpt lat="43.35347" lon="-0.59367">
        <ele>132.799316</ele>
        <time>2014-05-08T15:30:26Z</time>
      </trkpt>
      <trkpt lat="43.35305" lon="-0.59355">
        <ele>134.241211</ele>
        <time>2014-05-08T15:30:44Z</time>
      </trkpt>
      <trkpt lat="43.35258" lon="-0.59323">
        <ele>133.279907</ele>
        <time>2014-05-08T15:30:59Z</time>
      </trkpt>
      <trkpt lat="43.35255" lon="-0.5932">
        <ele>132.799316</ele>
        <time>2014-05-08T15:31:00Z</time>
      </trkpt>
      <trkpt lat="43.35227" lon="-0.5933">
        <ele>133.279907</ele>
        <time>2014-05-08T15:31:08Z</time>
      </trkpt>
      <trkpt lat="43.35213" lon="-0.59345">
        <ele>135.202515</ele>
        <time>2014-05-08T15:31:13Z</time>
      </trkpt>
      <trkpt lat="43.35144" lon="-0.59348">
        <ele>135.683105</ele>
        <time>2014-05-08T15:31:33Z</time>
      </trkpt>
      <trkpt lat="43.35121" lon="-0.59348">
        <ele>135.683105</ele>
        <time>2014-05-08T15:31:46Z</time>
      </trkpt>
      <trkpt lat="43.35104" lon="-0.59344">
        <ele>135.683105</ele>
        <time>2014-05-08T15:31:57Z</time>
      </trkpt>
      <trkpt lat="43.35043" lon="-0.59315">
        <ele>136.644653</ele>
        <time>2014-05-08T15:32:15Z</time>
      </trkpt>
      <trkpt lat="43.34968" lon="-0.59278">
        <ele>135.683105</ele>
        <time>2014-05-08T15:32:34Z</time>
      </trkpt>
      <trkpt lat="43.3489" lon="-0.59242">
        <ele>136.16394</ele>
        <time>2014-05-08T15:32:54Z</time>
      </trkpt>
      <trkpt lat="43.34881" lon="-0.59238">
        <ele>136.16394</ele>
        <time>2014-05-08T15:32:56Z</time>
      </trkpt>
      <trkpt lat="43.34865" lon="-0.59233">
        <ele>135.683105</ele>
        <time>2014-05-08T15:33:00Z</time>
      </trkpt>
      <trkpt lat="43.34792" lon="-0.59212">
        <ele>137.125244</ele>
        <time>2014-05-08T15:33:18Z</time>
      </trkpt>
      <trkpt lat="43.34777" lon="-0.59257">
        <ele>140.009155</ele>
        <time>2014-05-08T15:33:28Z</time>
      </trkpt>
      <trkpt lat="43.3475" lon="-0.59282">
        <ele>141.45105</ele>
        <time>2014-05-08T15:33:38Z</time>
      </trkpt>
      <trkpt lat="43.34716" lon="-0.59326">
        <ele>141.931763</ele>
        <time>2014-05-08T15:33:54Z</time>
      </trkpt>
      <trkpt lat="43.34706" lon="-0.59381">
        <ele>143.85437</ele>
        <time>2014-05-08T15:34:07Z</time>
      </trkpt>
      <trkpt lat="43.3469" lon="-0.59375">
        <ele>145.296387</ele>
        <time>2014-05-08T15:34:13Z</time>
      </trkpt>
      <trkpt lat="43.34631" lon="-0.59311">
        <ele>147.699707</ele>
        <time>2014-05-08T15:34:36Z</time>
      </trkpt>
      <trkpt lat="43.34573" lon="-0.5926">
        <ele>147.218994</ele>
        <time>2014-05-08T15:34:54Z</time>
      </trkpt>
      <trkpt lat="43.34488" lon="-0.59201">
        <ele>145.7771</ele>
        <time>2014-05-08T15:35:12Z</time>
      </trkpt>
      <trkpt lat="43.34428" lon="-0.59146">
        <ele>142.893066</ele>
        <time>2014-05-08T15:35:25Z</time>
      </trkpt>
      <trkpt lat="43.34407" lon="-0.59143">
        <ele>143.373657</ele>
        <time>2014-05-08T15:35:30Z</time>
      </trkpt>
      <trkpt lat="43.34395" lon="-0.59145">
        <ele>143.373657</ele>
        <time>2014-05-08T15:35:34Z</time>
      </trkpt>
      <trkpt lat="43.3433" lon="-0.59096">
        <ele>143.85437</ele>
        <time>2014-05-08T15:35:49Z</time>
      </trkpt>
      <trkpt lat="43.34311" lon="-0.59084">
        <ele>144.335205</ele>
        <time>2014-05-08T15:35:53Z</time>
      </trkpt>
      <trkpt lat="43.34296" lon="-0.59079">
        <ele>143.85437</ele>
        <time>2014-05-08T15:35:56Z</time>
      </trkpt>
      <trkpt lat="43.34183" lon="-0.59068">
        <ele>145.296387</ele>
        <time>2014-05-08T15:36:18Z</time>
      </trkpt>
      <trkpt lat="43.34075" lon="-0.5906">
        <ele>144.815796</ele>
        <time>2014-05-08T15:36:39Z</time>
      </trkpt>
      <trkpt lat="43.33957" lon="-0.59039">
        <ele>145.7771</ele>
        <time>2014-05-08T15:37:02Z</time>
      </trkpt>
      <trkpt lat="43.33885" lon="-0.58971">
        <ele>142.893066</ele>
        <time>2014-05-08T15:37:16Z</time>
      </trkpt>
      <trkpt lat="43.33832" lon="-0.58905">
        <ele>142.893066</ele>
        <time>2014-05-08T15:37:28Z</time>
      </trkpt>
      <trkpt lat="43.33818" lon="-0.58916">
        <ele>143.85437</ele>
        <time>2014-05-08T15:37:33Z</time>
      </trkpt>
      <trkpt lat="43.3378" lon="-0.58969">
        <ele>147.699707</ele>
        <time>2014-05-08T15:37:49Z</time>
      </trkpt>
      <trkpt lat="43.33747" lon="-0.58966">
        <ele>149.141602</ele>
        <time>2014-05-08T15:38:02Z</time>
      </trkpt>
      <trkpt lat="43.33723" lon="-0.58952">
        <ele>152.506348</ele>
        <time>2014-05-08T15:38:14Z</time>
      </trkpt>
      <trkpt lat="43.3369" lon="-0.58933">
        <ele>155.390259</ele>
        <time>2014-05-08T15:38:31Z</time>
      </trkpt>
      <trkpt lat="43.33658" lon="-0.58917">
        <ele>157.312866</ele>
        <time>2014-05-08T15:38:47Z</time>
      </trkpt>
      <trkpt lat="43.33622" lon="-0.58911">
        <ele>160.196899</ele>
        <time>2014-05-08T15:39:05Z</time>
      </trkpt>
      <trkpt lat="43.33595" lon="-0.58885">
        <ele>162.119507</ele>
        <time>2014-05-08T15:39:20Z</time>
      </trkpt>
      <trkpt lat="43.33549" lon="-0.5884">
        <ele>161.158203</ele>
        <time>2014-05-08T15:39:37Z</time>
      </trkpt>
      <trkpt lat="43.33511" lon="-0.58803">
        <ele>158.27417</ele>
        <time>2014-05-08T15:39:44Z</time>
      </trkpt>
      <trkpt lat="43.33436" lon="-0.58728">
        <ele>155.390259</ele>
        <time>2014-05-08T15:39:55Z</time>
      </trkpt>
      <trkpt lat="43.33382" lon="-0.58681">
        <ele>153.948364</ele>
        <time>2014-05-08T15:40:04Z</time>
      </trkpt>
      <trkpt lat="43.33333" lon="-0.58628">
        <ele>153.467651</ele>
        <time>2014-05-08T15:40:14Z</time>
      </trkpt>
      <trkpt lat="43.33284" lon="-0.58594">
        <ele>152.025757</ele>
        <time>2014-05-08T15:40:23Z</time>
      </trkpt>
      <trkpt lat="43.33257" lon="-0.58566">
        <ele>148.661011</ele>
        <time>2014-05-08T15:40:28Z</time>
      </trkpt>
      <trkpt lat="43.33237" lon="-0.58548">
        <ele>146.257813</ele>
        <time>2014-05-08T15:40:31Z</time>
      </trkpt>
      <trkpt lat="43.33221" lon="-0.58535">
        <ele>145.296387</ele>
        <time>2014-05-08T15:40:33Z</time>
      </trkpt>
      <trkpt lat="43.33193" lon="-0.58497">
        <ele>146.257813</ele>
        <time>2014-05-08T15:40:38Z</time>
      </trkpt>
      <trkpt lat="43.33184" lon="-0.58487">
        <ele>147.699707</ele>
        <time>2014-05-08T15:40:41Z</time>
      </trkpt>
      <trkpt lat="43.33174" lon="-0.58481">
        <ele>150.103027</ele>
        <time>2014-05-08T15:40:45Z</time>
      </trkpt>
      <trkpt lat="43.33146" lon="-0.58452">
        <ele>151.544922</ele>
        <time>2014-05-08T15:40:58Z</time>
      </trkpt>
      <trkpt lat="43.33116" lon="-0.58452">
        <ele>152.506348</ele>
        <time>2014-05-08T15:41:06Z</time>
      </trkpt>
      <trkpt lat="43.33057" lon="-0.58423">
        <ele>151.544922</ele>
        <time>2014-05-08T15:41:20Z</time>
      </trkpt>
      <trkpt lat="43.33039" lon="-0.58419">
        <ele>151.064209</ele>
        <time>2014-05-08T15:41:24Z</time>
      </trkpt>
      <trkpt lat="43.32983" lon="-0.58388">
        <ele>153.948364</ele>
        <time>2014-05-08T15:41:40Z</time>
      </trkpt>
      <trkpt lat="43.32939" lon="-0.58377">
        <ele>156.832153</ele>
        <time>2014-05-08T15:41:53Z</time>
      </trkpt>
      <trkpt lat="43.32897" lon="-0.58347">
        <ele>158.754761</ele>
        <time>2014-05-08T15:42:12Z</time>
      </trkpt>
      <trkpt lat="43.32881" lon="-0.58332">
        <ele>162.119507</ele>
        <time>2014-05-08T15:42:20Z</time>
      </trkpt>
      <trkpt lat="43.32834" lon="-0.58309">
        <ele>161.638916</ele>
        <time>2014-05-08T15:42:36Z</time>
      </trkpt>
      <trkpt lat="43.32765" lon="-0.58293">
        <ele>159.716187</ele>
        <time>2014-05-08T15:42:50Z</time>
      </trkpt>
      <trkpt lat="43.32692" lon="-0.58235">
        <ele>157.793579</ele>
        <time>2014-05-08T15:43:05Z</time>
      </trkpt>
      <trkpt lat="43.32668" lon="-0.58213">
        <ele>157.312866</ele>
        <time>2014-05-08T15:43:10Z</time>
      </trkpt>
      <trkpt lat="43.32653" lon="-0.58202">
        <ele>155.870972</ele>
        <time>2014-05-08T15:43:13Z</time>
      </trkpt>
      <trkpt lat="43.32632" lon="-0.58168">
        <ele>153.467651</ele>
        <time>2014-05-08T15:43:18Z</time>
      </trkpt>
      <trkpt lat="43.32622" lon="-0.58141">
        <ele>151.544922</ele>
        <time>2014-05-08T15:43:21Z</time>
      </trkpt>
      <trkpt lat="43.32583" lon="-0.5811">
        <ele>148.18042</ele>
        <time>2014-05-08T15:43:29Z</time>
      </trkpt>
      <trkpt lat="43.32582" lon="-0.58112">
        <ele>147.699707</ele>
        <time>2014-05-08T15:43:37Z</time>
      </trkpt>
      <trkpt lat="43.32582" lon="-0.58112">
        <ele>148.661011</ele>
        <time>2014-05-08T15:43:46Z</time>
      </trkpt>
      <trkpt lat="43.32561" lon="-0.58101">
        <ele>149.141602</ele>
        <time>2014-05-08T15:44:05Z</time>
      </trkpt>
      <trkpt lat="43.32542" lon="-0.58089">
        <ele>150.103027</ele>
        <time>2014-05-08T15:44:21Z</time>
      </trkpt>
      <trkpt lat="43.32533" lon="-0.58064">
        <ele>150.583618</ele>
        <time>2014-05-08T15:44:37Z</time>
      </trkpt>
      <trkpt lat="43.32533" lon="-0.58037">
        <ele>150.103027</ele>
        <time>2014-05-08T15:44:51Z</time>
      </trkpt>
      <trkpt lat="43.32505" lon="-0.58007">
        <ele>149.141602</ele>
        <time>2014-05-08T15:45:03Z</time>
      </trkpt>
      <trkpt lat="43.32489" lon="-0.57997">
        <ele>149.141602</ele>
        <time>2014-05-08T15:45:07Z</time>
      </trkpt>
      <trkpt lat="43.32474" lon="-0.5798">
        <ele>148.18042</ele>
        <time>2014-05-08T15:45:13Z</time>
      </trkpt>
      <trkpt lat="43.32438" lon="-0.57991">
        <ele>149.622314</ele>
        <time>2014-05-08T15:45:22Z</time>
      </trkpt>
      <trkpt lat="43.3242" lon="-0.57997">
        <ele>149.141602</ele>
        <time>2014-05-08T15:45:26Z</time>
      </trkpt>
      <trkpt lat="43.32396" lon="-0.58">
        <ele>148.661011</ele>
        <time>2014-05-08T15:45:30Z</time>
      </trkpt>
      <trkpt lat="43.32321" lon="-0.58001">
        <ele>148.18042</ele>
        <time>2014-05-08T15:45:43Z</time>
      </trkpt>
      <trkpt lat="43.32312" lon="-0.57999">
        <ele>148.18042</ele>
        <time>2014-05-08T15:45:45Z</time>
      </trkpt>
      <trkpt lat="43.32264" lon="-0.5799">
        <ele>152.025757</ele>
        <time>2014-05-08T15:45:58Z</time>
      </trkpt>
      <trkpt lat="43.32239" lon="-0.57987">
        <ele>153.467651</ele>
        <time>2014-05-08T15:46:06Z</time>
      </trkpt>
      <trkpt lat="43.32234" lon="-0.57997">
        <ele>153.467651</ele>
        <time>2014-05-08T15:46:10Z</time>
      </trkpt>
      <trkpt lat="43.32229" lon="-0.58049">
        <ele>157.312866</ele>
        <time>2014-05-08T15:46:27Z</time>
      </trkpt>
      <trkpt lat="43.32224" lon="-0.58095">
        <ele>157.793579</ele>
        <time>2014-05-08T15:46:42Z</time>
      </trkpt>
      <trkpt lat="43.32204" lon="-0.5815">
        <ele>159.716187</ele>
        <time>2014-05-08T15:47:00Z</time>
      </trkpt>
      <trkpt lat="43.32173" lon="-0.5818">
        <ele>162.119507</ele>
        <time>2014-05-08T15:47:15Z</time>
      </trkpt>
      <trkpt lat="43.32144" lon="-0.58215">
        <ele>165.484131</ele>
        <time>2014-05-08T15:47:32Z</time>
      </trkpt>
      <trkpt lat="43.32136" lon="-0.58224">
        <ele>165.964722</ele>
        <time>2014-05-08T15:47:37Z</time>
      </trkpt>
      <trkpt lat="43.3212" lon="-0.58217">
        <ele>167.406738</ele>
        <time>2014-05-08T15:47:45Z</time>
      </trkpt>
      <trkpt lat="43.32084" lon="-0.58199">
        <ele>166.926025</ele>
        <time>2014-05-08T15:47:57Z</time>
      </trkpt>
      <trkpt lat="43.32034" lon="-0.58181">
        <ele>165.484131</ele>
        <time>2014-05-08T15:48:07Z</time>
      </trkpt>
      <trkpt lat="43.3202" lon="-0.58176">
        <ele>165.484131</ele>
        <time>2014-05-08T15:48:10Z</time>
      </trkpt>
      <trkpt lat="43.32007" lon="-0.58169">
        <ele>165.964722</ele>
        <time>2014-05-08T15:48:13Z</time>
      </trkpt>
      <trkpt lat="43.31993" lon="-0.58152">
        <ele>165.964722</ele>
        <time>2014-05-08T15:48:17Z</time>
      </trkpt>
      <trkpt lat="43.31966" lon="-0.58112">
        <ele>165.003418</ele>
        <time>2014-05-08T15:48:27Z</time>
      </trkpt>
      <trkpt lat="43.31957" lon="-0.58114">
        <ele>166.445313</ele>
        <time>2014-05-08T15:48:31Z</time>
      </trkpt>
      <trkpt lat="43.31931" lon="-0.58144">
        <ele>169.810059</ele>
        <time>2014-05-08T15:48:44Z</time>
      </trkpt>
      <trkpt lat="43.31898" lon="-0.5819">
        <ele>173.174683</ele>
        <time>2014-05-08T15:49:06Z</time>
      </trkpt>
      <trkpt lat="43.31889" lon="-0.58227">
        <ele>176.539307</ele>
        <time>2014-05-08T15:49:20Z</time>
      </trkpt>
      <trkpt lat="43.31867" lon="-0.58268">
        <ele>175.577881</ele>
        <time>2014-05-08T15:49:34Z</time>
      </trkpt>
      <trkpt lat="43.31827" lon="-0.58358">
        <ele>172.213257</ele>
        <time>2014-05-08T15:49:48Z</time>
      </trkpt>
      <trkpt lat="43.31822" lon="-0.58366">
        <ele>172.213257</ele>
        <time>2014-05-08T15:49:49Z</time>
      </trkpt>
      <trkpt lat="43.31784" lon="-0.58431">
        <ele>169.329468</ele>
        <time>2014-05-08T15:49:56Z</time>
      </trkpt>
      <trkpt lat="43.31773" lon="-0.5845">
        <ele>167.887329</ele>
        <time>2014-05-08T15:49:58Z</time>
      </trkpt>
      <trkpt lat="43.31749" lon="-0.58473">
        <ele>168.848755</ele>
        <time>2014-05-08T15:50:02Z</time>
      </trkpt>
      <trkpt lat="43.31734" lon="-0.58492">
        <ele>169.810059</ele>
        <time>2014-05-08T15:50:06Z</time>
      </trkpt>
      <trkpt lat="43.31713" lon="-0.58515">
        <ele>171.732666</ele>
        <time>2014-05-08T15:50:17Z</time>
      </trkpt>
      <trkpt lat="43.31697" lon="-0.58521">
        <ele>174.616577</ele>
        <time>2014-05-08T15:50:27Z</time>
      </trkpt>
      <trkpt lat="43.31696" lon="-0.58521">
        <ele>175.09729</ele>
        <time>2014-05-08T15:50:28Z</time>
      </trkpt>
      <trkpt lat="43.31679" lon="-0.58522">
        <ele>177.981201</ele>
        <time>2014-05-08T15:50:40Z</time>
      </trkpt>
      <trkpt lat="43.31656" lon="-0.58524">
        <ele>181.345825</ele>
        <time>2014-05-08T15:50:58Z</time>
      </trkpt>
      <trkpt lat="43.31643" lon="-0.58525">
        <ele>184.229858</ele>
        <time>2014-05-08T15:51:09Z</time>
      </trkpt>
      <trkpt lat="43.31627" lon="-0.58527">
        <ele>187.59436</ele>
        <time>2014-05-08T15:51:22Z</time>
      </trkpt>
      <trkpt lat="43.31612" lon="-0.58529">
        <ele>190.478394</ele>
        <time>2014-05-08T15:51:35Z</time>
      </trkpt>
      <trkpt lat="43.31591" lon="-0.58536">
        <ele>193.843018</ele>
        <time>2014-05-08T15:51:51Z</time>
      </trkpt>
      <trkpt lat="43.31584" lon="-0.58556">
        <ele>197.20752</ele>
        <time>2014-05-08T15:52:05Z</time>
      </trkpt>
      <trkpt lat="43.31589" lon="-0.586">
        <ele>198.649536</ele>
        <time>2014-05-08T15:52:21Z</time>
      </trkpt>
      <trkpt lat="43.31584" lon="-0.5864">
        <ele>201.052856</ele>
        <time>2014-05-08T15:52:32Z</time>
      </trkpt>
      <trkpt lat="43.31581" lon="-0.58651">
        <ele>202.014282</ele>
        <time>2014-05-08T15:52:36Z</time>
      </trkpt>
      <trkpt lat="43.31575" lon="-0.58655">
        <ele>202.014282</ele>
        <time>2014-05-08T15:52:46Z</time>
      </trkpt>
      <trkpt lat="43.31571" lon="-0.58652">
        <ele>202.014282</ele>
        <time>2014-05-08T15:53:03Z</time>
      </trkpt>
      <trkpt lat="43.31571" lon="-0.5865">
        <ele>202.494873</ele>
        <time>2014-05-08T15:53:20Z</time>
      </trkpt>
      <trkpt lat="43.31572" lon="-0.58649">
        <ele>202.494873</ele>
        <time>2014-05-08T15:53:42Z</time>
      </trkpt>
    </trkseg>
  </trk>
</gpx>